Observation data for Fritch on 07/11/2018      Previous  Date       Current Mesonet Observations  Soil Data  Daily Summary Page  Observations in Plain Language
KFR1 110501Z 22005KT 25/17 A3014 RMK A01 T02490168  RH  061%=      5-min Rain = 0
KFR1 110502Z 22005KT 25/17 A3014 RMK A01 T02490168  RH  061%=      5-min Rain = 0
KFR1 110503Z 22004KT 25/17 A3014 RMK A01 T02490168  RH  061%=      5-min Rain = 0
KFR1 110504Z 21005KT 25/17 A3014 RMK A01 T02490169  RH  061%=      5-min Rain = 0
KFR1 110505Z 22005KT 25/17 A3014 RMK A01 T02490168  RH  061%=      5-min Rain = 0
KFR1 110506Z 21005KT 25/17 A3014 RMK A01 T02490168  RH  061%=      5-min Rain = 0
KFR1 110507Z 21005KT 25/17 A3014 RMK A01 T02490169  RH  061%=      5-min Rain = 0
KFR1 110508Z 20005KT 25/17 A3015 RMK A01 T02490168  RH  061%=      5-min Rain = 0
KFR1 110509Z 20005KT 25/17 A3015 RMK A01 T02490169  RH  061%=      5-min Rain = 0
KFR1 110510Z 20005KT 25/17 A3015 RMK A01 T02480169  RH  061%=      5-min Rain = 0
KFR1 110511Z 19005KT 25/17 A3015 RMK A01 T02480169  RH  061%=      5-min Rain = 0
KFR1 110512Z 18005KT 25/17 A3015 RMK A01 T02470168  RH  062%=      5-min Rain = 0
KFR1 110513Z 17005KT 25/17 A3015 RMK A01 T02460169  RH  062%=      5-min Rain = 0
KFR1 110514Z 17006KT 25/17 A3014 RMK A01 T02460169  RH  062%=      5-min Rain = 0
KFR1 110515Z 17006KT 25/17 A3014 RMK A01 T02450168  RH  062%=      5-min Rain = 0
KFR1 110516Z 17008KT 25/17 A3014 RMK A01 T02450168  RH  062%=      5-min Rain = 0
KFR1 110517Z 17006KT 25/17 A3014 RMK A01 T02450168  RH  062%=      5-min Rain = 0
KFR1 110518Z 17007KT 25/17 A3014 RMK A01 T02450168  RH  062%=      5-min Rain = 0
KFR1 110519Z 17007KT 25/17 A3014 RMK A01 T02450168  RH  062%=      5-min Rain = 0
KFR1 110520Z 17009KT 25/17 A3014 RMK A01 T02450168  RH  062%=      5-min Rain = 0
KFR1 110521Z 17008KT 25/17 A3014 RMK A01 T02460168  RH  062%=      5-min Rain = 0
KFR1 110522Z 17009KT 25/17 A3014 RMK A01 T02460167  RH  062%=      5-min Rain = 0
KFR1 110523Z 17010KT 25/17 A3014 RMK A01 T02460168  RH  062%=      5-min Rain = 0
KFR1 110524Z 17008KT 25/17 A3014 RMK A01 T02460168  RH  062%=      5-min Rain = 0
KFR1 110525Z 17009KT 25/17 A3014 RMK A01 T02460168  RH  062%=      5-min Rain = 0
KFR1 110526Z 18009KT 25/17 A3014 RMK A01 T02450168  RH  062%=      5-min Rain = 0
KFR1 110527Z 17008KT 25/17 A3014 RMK A01 T02450168  RH  062%=      5-min Rain = 0
KFR1 110528Z 17008KT 24/17 A3014 RMK A01 T02440168  RH  062%=      5-min Rain = 0
KFR1 110529Z 17008KT 24/17 A3014 RMK A01 T02440168  RH  062%=      5-min Rain = 0
KFR1 110530Z 18007KT 24/17 A3014 RMK A01 T02440168  RH  063%=      5-min Rain = 0
KFR1 110531Z 18006KT 24/17 A3014 RMK A01 T02430168  RH  063%=      5-min Rain = 0
KFR1 110532Z 19006KT 24/17 A3014 RMK A01 T02430168  RH  063%=      5-min Rain = 0
KFR1 110533Z 19006KT 24/17 A3014 RMK A01 T02420168  RH  063%=      5-min Rain = 0
KFR1 110534Z 20005KT 24/17 A3014 RMK A01 T02420168  RH  063%=      5-min Rain = 0
KFR1 110535Z 22005KT 24/17 A3014 RMK A01 T02410168  RH  064%=      5-min Rain = 0
KFR1 110536Z 21006KT 24/17 A3015 RMK A01 T02410168  RH  064%=      5-min Rain = 0
KFR1 110537Z 20005KT 24/17 A3015 RMK A01 T02410168  RH  064%=      5-min Rain = 0
KFR1 110538Z 21004KT 24/17 A3015 RMK A01 T02400168  RH  064%=      5-min Rain = 0
KFR1 110539Z 21004KT 24/17 A3015 RMK A01 T02400168  RH  064%=      5-min Rain = 0
KFR1 110540Z 21003KT 24/17 A3015 RMK A01 T02390168  RH  064%=      5-min Rain = 0
KFR1 110541Z 18003KT 24/17 A3015 RMK A01 T02390168  RH  064%=      5-min Rain = 0
KFR1 110542Z 24000KT 24/17 A3015 RMK A01 T02390168  RH  064%=      5-min Rain = 0
KFR1 110543Z 32000KT 24/17 A3015 RMK A01 T02390168  RH  064%=      5-min Rain = 0
KFR1 110544Z 30001KT 24/17 A3015 RMK A01 T02390168  RH  065%=      5-min Rain = 0
KFR1 110545Z 31002KT 24/17 A3016 RMK A01 T02380168  RH  065%=      5-min Rain = 0
KFR1 110546Z 27002KT 24/17 A3016 RMK A01 T02380168  RH  065%=      5-min Rain = 0
KFR1 110547Z 28002KT 24/17 A3016 RMK A01 T02380168  RH  065%=      5-min Rain = 0
KFR1 110548Z 36002KT 24/17 A3016 RMK A01 T02380168  RH  065%=      5-min Rain = 0
KFR1 110549Z 36002KT 24/17 A3016 RMK A01 T02380168  RH  065%=      5-min Rain = 0
KFR1 110550Z 34002KT 24/17 A3016 RMK A01 T02380168  RH  065%=      5-min Rain = 0
KFR1 110551Z 34002KT 24/17 A3016 RMK A01 T02370168  RH  065%=      5-min Rain = 0
KFR1 110552Z 32003KT 24/17 A3016 RMK A01 T02380169  RH  065%=      5-min Rain = 0
KFR1 110553Z 32003KT 24/17 A3016 RMK A01 T02380169  RH  065%=      5-min Rain = 0
KFR1 110554Z 33003KT 24/17 A3015 RMK A01 T02380170  RH  065%=      5-min Rain = 0
KFR1 110555Z 33001KT 24/17 A3015 RMK A01 T02390170  RH  065%=      5-min Rain = 0
KFR1 110556Z 11001KT 24/17 A3015 RMK A01 T02400170  RH  065%=      5-min Rain = 0
KFR1 110557Z 10001KT 24/17 A3015 RMK A01 T02410170  RH  064%=      5-min Rain = 0
KFR1 110558Z 10000KT 24/17 A3015 RMK A01 T02410170  RH  064%=      5-min Rain = 0
KFR1 110559Z 00000KT 24/17 A3015 RMK A01 T02420170  RH  064%=      5-min Rain = 0
KFR1 110600Z 00000KT 24/17 A3015 RMK A01 T02410170  RH  064%=      5-min Rain = 0
KFR1 110601Z 23002KT 24/17 A3015 RMK A01 T02410170  RH  064%=      5-min Rain = 0
KFR1 110602Z 23003KT 24/17 A3015 RMK A01 T02410170  RH  064%=      5-min Rain = 0
KFR1 110603Z 23002KT 24/17 A3015 RMK A01 T02410170  RH  064%=      5-min Rain = 0
KFR1 110604Z 20003KT 24/17 A3015 RMK A01 T02410170  RH  064%=      5-min Rain = 0
KFR1 110605Z 24001KT 24/17 A3014 RMK A01 T02420170  RH  064%=      5-min Rain = 0
KFR1 110606Z 19001KT 24/17 A3014 RMK A01 T02420171  RH  064%=      5-min Rain = 0
KFR1 110607Z 18003KT 24/17 A3014 RMK A01 T02420170  RH  064%=      5-min Rain = 0
KFR1 110608Z 18004KT 24/17 A3014 RMK A01 T02430170  RH  064%=      5-min Rain = 0
KFR1 110609Z 18005KT 24/17 A3014 RMK A01 T02430170  RH  064%=      5-min Rain = 0
KFR1 110610Z 19005KT 24/17 A3014 RMK A01 T02420170  RH  064%=      5-min Rain = 0
KFR1 110611Z 18007KT 24/17 A3014 RMK A01 T02410170  RH  064%=      5-min Rain = 0
KFR1 110612Z 17006KT 24/17 A3014 RMK A01 T02410170  RH  064%=      5-min Rain = 0
KFR1 110613Z 17005KT 24/17 A3014 RMK A01 T02410169  RH  064%=      5-min Rain = 0
KFR1 110614Z 17005KT 24/17 A3014 RMK A01 T02410170  RH  064%=      5-min Rain = 0
KFR1 110615Z 17004KT 24/17 A3014 RMK A01 T02400169  RH  065%=      5-min Rain = 0
KFR1 110616Z 18004KT 24/17 A3014 RMK A01 T02400169  RH  065%=      5-min Rain = 0
KFR1 110617Z 17004KT 24/17 A3014 RMK A01 T02390170  RH  065%=      5-min Rain = 0
KFR1 110618Z 17005KT 24/17 A3014 RMK A01 T02390170  RH  065%=      5-min Rain = 0
KFR1 110619Z 19004KT 24/17 A3014 RMK A01 T02390170  RH  065%=      5-min Rain = 0
KFR1 110620Z 20003KT 24/17 A3014 RMK A01 T02390170  RH  065%=      5-min Rain = 0
KFR1 110621Z 18004KT 24/17 A3014 RMK A01 T02390170  RH  065%=      5-min Rain = 0
KFR1 110622Z 18004KT 24/17 A3014 RMK A01 T02380170  RH  065%=      5-min Rain = 0
KFR1 110623Z 20002KT 24/17 A3014 RMK A01 T02380170  RH  065%=      5-min Rain = 0
KFR1 110624Z 18002KT 24/17 A3014 RMK A01 T02380170  RH  065%=      5-min Rain = 0
KFR1 110625Z 18003KT 24/17 A3014 RMK A01 T02390170  RH  065%=      5-min Rain = 0
KFR1 110626Z 21003KT 24/17 A3014 RMK A01 T02390169  RH  065%=      5-min Rain = 0
KFR1 110627Z 19003KT 24/17 A3015 RMK A01 T02390170  RH  065%=      5-min Rain = 0
KFR1 110628Z 17002KT 24/17 A3015 RMK A01 T02400170  RH  065%=      5-min Rain = 0
KFR1 110629Z 18002KT 24/17 A3015 RMK A01 T02400169  RH  065%=      5-min Rain = 0
KFR1 110630Z 19003KT 24/17 A3015 RMK A01 T02400170  RH  065%=      5-min Rain = 0
KFR1 110631Z 21003KT 24/17 A3015 RMK A01 T02400170  RH  065%=      5-min Rain = 0
KFR1 110632Z 21002KT 24/17 A3015 RMK A01 T02400170  RH  065%=      5-min Rain = 0
KFR1 110633Z 26001KT 24/17 A3015 RMK A01 T02400170  RH  065%=      5-min Rain = 0
KFR1 110634Z 25001KT 24/17 A3015 RMK A01 T02400170  RH  065%=      5-min Rain = 0
KFR1 110635Z 24002KT 24/17 A3015 RMK A01 T02400170  RH  065%=      5-min Rain = 0
KFR1 110636Z 25002KT 24/17 A3015 RMK A01 T02400170  RH  065%=      5-min Rain = 0
KFR1 110637Z 24002KT 24/17 A3015 RMK A01 T02390170  RH  065%=      5-min Rain = 0
KFR1 110638Z 26001KT 24/17 A3014 RMK A01 T02390170  RH  065%=      5-min Rain = 0
KFR1 110639Z 29001KT 24/17 A3014 RMK A01 T02400170  RH  065%=      5-min Rain = 0
KFR1 110640Z 29002KT 24/17 A3014 RMK A01 T02390170  RH  065%=      5-min Rain = 0
KFR1 110641Z 28001KT 24/17 A3014 RMK A01 T02400170  RH  065%=      5-min Rain = 0
KFR1 110642Z 30001KT 24/17 A3014 RMK A01 T02390170  RH  065%=      5-min Rain = 0
KFR1 110643Z 28002KT 24/17 A3014 RMK A01 T02390170  RH  065%=      5-min Rain = 0
KFR1 110644Z 24002KT 24/17 A3014 RMK A01 T02390170  RH  065%=      5-min Rain = 0
KFR1 110645Z 19002KT 24/17 A3014 RMK A01 T02390170  RH  065%=      5-min Rain = 0
KFR1 110646Z 26000KT 24/17 A3014 RMK A01 T02390170  RH  065%=      5-min Rain = 0
KFR1 110647Z 24001KT 24/17 A3014 RMK A01 T02390170  RH  065%=      5-min Rain = 0
KFR1 110648Z 20001KT 24/17 A3014 RMK A01 T02400170  RH  065%=      5-min Rain = 0
KFR1 110649Z 20003KT 24/17 A3014 RMK A01 T02400170  RH  065%=      5-min Rain = 0
KFR1 110650Z 18002KT 24/17 A3014 RMK A01 T02400170  RH  065%=      5-min Rain = 0
KFR1 110651Z 25001KT 24/17 A3014 RMK A01 T02410170  RH  065%=      5-min Rain = 0
KFR1 110652Z 00000KT 24/17 A3014 RMK A01 T02410170  RH  065%=      5-min Rain = 0
KFR1 110653Z 13000KT 24/17 A3014 RMK A01 T02410170  RH  065%=      5-min Rain = 0
KFR1 110654Z 11000KT 24/17 A3014 RMK A01 T02410171  RH  065%=      5-min Rain = 0
KFR1 110655Z 00000KT 24/17 A3014 RMK A01 T02400170  RH  065%=      5-min Rain = 0
KFR1 110656Z 00000KT 24/17 A3014 RMK A01 T02400170  RH  065%=      5-min Rain = 0
KFR1 110657Z 00000KT 24/17 A3014 RMK A01 T02400170  RH  065%=      5-min Rain = 0
KFR1 110658Z 01001KT 24/17 A3014 RMK A01 T02390170  RH  065%=      5-min Rain = 0
KFR1 110659Z 35002KT 24/17 A3014 RMK A01 T02380170  RH  066%=      5-min Rain = 0
KFR1 110700Z 35003KT 24/17 A3014 RMK A01 T02380170  RH  066%=      5-min Rain = 0
KFR1 110701Z 35002KT 24/17 A3014 RMK A01 T02380170  RH  066%=      5-min Rain = 0
KFR1 110702Z 34002KT 24/17 A3014 RMK A01 T02370170  RH  066%=      5-min Rain = 0
KFR1 110703Z 35002KT 24/17 A3014 RMK A01 T02370170  RH  066%=      5-min Rain = 0
KFR1 110704Z 34002KT 24/17 A3014 RMK A01 T02380171  RH  066%=      5-min Rain = 0
KFR1 110705Z 32001KT 24/17 A3014 RMK A01 T02370170  RH  066%=      5-min Rain = 0
KFR1 110706Z 29001KT 24/17 A3014 RMK A01 T02370171  RH  066%=      5-min Rain = 0
KFR1 110707Z 28001KT 24/17 A3014 RMK A01 T02370171  RH  066%=      5-min Rain = 0
KFR1 110708Z 25002KT 24/17 A3014 RMK A01 T02360171  RH  067%=      5-min Rain = 0
KFR1 110709Z 23001KT 24/17 A3014 RMK A01 T02360170  RH  066%=      5-min Rain = 0
KFR1 110710Z 22001KT 24/17 A3014 RMK A01 T02370170  RH  066%=      5-min Rain = 0
KFR1 110711Z 22002KT 24/17 A3014 RMK A01 T02380170  RH  066%=      5-min Rain = 0
KFR1 110712Z 22003KT 24/17 A3014 RMK A01 T02380170  RH  066%=      5-min Rain = 0
KFR1 110713Z 22002KT 24/17 A3014 RMK A01 T02380170  RH  066%=      5-min Rain = 0
KFR1 110714Z 23002KT 24/17 A3014 RMK A01 T02380170  RH  066%=      5-min Rain = 0
KFR1 110715Z 27001KT 24/17 A3014 RMK A01 T02380170  RH  066%=      5-min Rain = 0
KFR1 110716Z 29003KT 24/17 A3014 RMK A01 T02380169  RH  065%=      5-min Rain = 0
KFR1 110717Z 23004KT 24/17 A3014 RMK A01 T02390169  RH  065%=      5-min Rain = 0
KFR1 110718Z 22005KT 24/17 A3014 RMK A01 T02380169  RH  065%=      5-min Rain = 0
KFR1 110719Z 22003KT 24/17 A3014 RMK A01 T02380169  RH  065%=      5-min Rain = 0
KFR1 110720Z 21002KT 24/17 A3014 RMK A01 T02380170  RH  065%=      5-min Rain = 0
KFR1 110721Z 22002KT 24/17 A3014 RMK A01 T02370169  RH  066%=      5-min Rain = 0
KFR1 110722Z 21002KT 24/17 A3014 RMK A01 T02370169  RH  066%=      5-min Rain = 0
KFR1 110723Z 21003KT 24/17 A3014 RMK A01 T02370170  RH  066%=      5-min Rain = 0
KFR1 110724Z 22001KT 24/17 A3014 RMK A01 T02370170  RH  066%=      5-min Rain = 0
KFR1 110725Z 00000KT 24/17 A3014 RMK A01 T02360169  RH  066%=      5-min Rain = 0
KFR1 110726Z 23001KT 24/17 A3014 RMK A01 T02360169  RH  066%=      5-min Rain = 0
KFR1 110727Z 19002KT 24/17 A3014 RMK A01 T02360169  RH  066%=      5-min Rain = 0
KFR1 110728Z 13002KT 24/17 A3014 RMK A01 T02360169  RH  066%=      5-min Rain = 0
KFR1 110729Z 16002KT 24/17 A3014 RMK A01 T02360169  RH  066%=      5-min Rain = 0
KFR1 110730Z 15001KT 24/17 A3014 RMK A01 T02360169  RH  066%=      5-min Rain = 0
KFR1 110731Z 13001KT 24/17 A3014 RMK A01 T02360169  RH  066%=      5-min Rain = 0
KFR1 110732Z 14002KT 24/17 A3014 RMK A01 T02380169  RH  065%=      5-min Rain = 0
KFR1 110733Z 15003KT 24/17 A3014 RMK A01 T02390169  RH  065%=      5-min Rain = 0
KFR1 110734Z 13004KT 24/17 A3014 RMK A01 T02390169  RH  065%=      5-min Rain = 0
KFR1 110735Z 14003KT 24/17 A3014 RMK A01 T02390170  RH  065%=      5-min Rain = 0
KFR1 110736Z 13003KT 24/17 A3014 RMK A01 T02380169  RH  065%=      5-min Rain = 0
KFR1 110737Z 12004KT 24/17 A3014 RMK A01 T02380169  RH  065%=      5-min Rain = 0
KFR1 110738Z 12005KT 24/17 A3014 RMK A01 T02370170  RH  066%=      5-min Rain = 0
KFR1 110739Z 12004KT 24/17 A3014 RMK A01 T02350170  RH  067%=      5-min Rain = 0
KFR1 110740Z 13003KT 23/17 A3014 RMK A01 T02340169  RH  067%=      5-min Rain = 0
KFR1 110741Z 12003KT 23/17 A3014 RMK A01 T02340169  RH  067%=      5-min Rain = 0
KFR1 110742Z 12003KT 23/17 A3014 RMK A01 T02340169  RH  067%=      5-min Rain = 0
KFR1 110743Z 12003KT 23/17 A3014 RMK A01 T02340170  RH  067%=      5-min Rain = 0
KFR1 110744Z 13003KT 23/17 A3014 RMK A01 T02340170  RH  067%=      5-min Rain = 0
KFR1 110745Z 10003KT 23/17 A3014 RMK A01 T02330170  RH  067%=      5-min Rain = 0
KFR1 110746Z 10003KT 23/17 A3014 RMK A01 T02320169  RH  068%=      5-min Rain = 0
KFR1 110747Z 10003KT 23/17 A3014 RMK A01 T02300169  RH  068%=      5-min Rain = 0
KFR1 110748Z 11004KT 23/17 A3014 RMK A01 T02290169  RH  069%=      5-min Rain = 0
KFR1 110749Z 09004KT 23/17 A3014 RMK A01 T02280169  RH  069%=      5-min Rain = 0
KFR1 110750Z 10003KT 23/17 A3014 RMK A01 T02270169  RH  070%=      5-min Rain = 0
KFR1 110751Z 10004KT 23/17 A3014 RMK A01 T02270169  RH  070%=      5-min Rain = 0
KFR1 110752Z 10004KT 23/17 A3014 RMK A01 T02260169  RH  070%=      5-min Rain = 0
KFR1 110753Z 09004KT 23/17 A3014 RMK A01 T02250169  RH  070%=      5-min Rain = 0
KFR1 110754Z 09004KT 23/17 A3014 RMK A01 T02260169  RH  071%=      5-min Rain = 0
KFR1 110755Z 10004KT 23/17 A3014 RMK A01 T02250170  RH  071%=      5-min Rain = 0
KFR1 110756Z 10004KT 23/17 A3014 RMK A01 T02250170  RH  071%=      5-min Rain = 0
KFR1 110757Z 10004KT 23/17 A3014 RMK A01 T02260170  RH  071%=      5-min Rain = 0
KFR1 110758Z 10004KT 23/17 A3014 RMK A01 T02260170  RH  071%=      5-min Rain = 0
KFR1 110759Z 10004KT 23/17 A3014 RMK A01 T02250169  RH  071%=      5-min Rain = 0
KFR1 110800Z 10004KT 22/17 A3014 RMK A01 T02240169  RH  071%=      5-min Rain = 0
KFR1 110801Z 10004KT 22/17 A3014 RMK A01 T02240169  RH  071%=      5-min Rain = 0
KFR1 110802Z 11003KT 22/17 A3014 RMK A01 T02230169  RH  071%=      5-min Rain = 0
KFR1 110803Z 12003KT 22/17 A3014 RMK A01 T02240169  RH  071%=      5-min Rain = 0
KFR1 110804Z 11003KT 23/17 A3014 RMK A01 T02250170  RH  071%=      5-min Rain = 0
KFR1 110805Z 12003KT 23/17 A3014 RMK A01 T02260170  RH  071%=      5-min Rain = 0
KFR1 110806Z 12003KT 23/17 A3014 RMK A01 T02260170  RH  071%=      5-min Rain = 0
KFR1 110807Z 12003KT 23/17 A3014 RMK A01 T02260170  RH  071%=      5-min Rain = 0
KFR1 110808Z 12003KT 23/17 A3014 RMK A01 T02260170  RH  071%=      5-min Rain = 0
KFR1 110809Z 12003KT 23/17 A3014 RMK A01 T02260169  RH  070%=      5-min Rain = 0
KFR1 110810Z 12003KT 23/17 A3014 RMK A01 T02270170  RH  070%=      5-min Rain = 0
KFR1 110811Z 12002KT 23/17 A3014 RMK A01 T02280170  RH  070%=      5-min Rain = 0
KFR1 110812Z 12003KT 23/17 A3014 RMK A01 T02290170  RH  069%=      5-min Rain = 0
KFR1 110813Z 12002KT 23/17 A3014 RMK A01 T02290170  RH  069%=      5-min Rain = 0
KFR1 110814Z 10002KT 23/17 A3014 RMK A01 T02290170  RH  069%=      5-min Rain = 0
KFR1 110815Z 12002KT 23/17 A3014 RMK A01 T02290169  RH  069%=      5-min Rain = 0
KFR1 110816Z 13002KT 23/17 A3014 RMK A01 T02290169  RH  069%=      5-min Rain = 0
KFR1 110817Z 11001KT 23/17 A3014 RMK A01 T02290169  RH  069%=      5-min Rain = 0
KFR1 110818Z 14001KT 23/17 A3014 RMK A01 T02290169  RH  069%=      5-min Rain = 0
KFR1 110819Z 12001KT 23/17 A3014 RMK A01 T02280169  RH  069%=      5-min Rain = 0
KFR1 110820Z 13001KT 23/17 A3014 RMK A01 T02280169  RH  069%=      5-min Rain = 0
KFR1 110821Z 12001KT 23/17 A3014 RMK A01 T02280169  RH  069%=      5-min Rain = 0
KFR1 110822Z 10001KT 23/17 A3014 RMK A01 T02280169  RH  069%=      5-min Rain = 0
KFR1 110823Z 09002KT 23/17 A3014 RMK A01 T02290169  RH  069%=      5-min Rain = 0
KFR1 110824Z 10002KT 23/17 A3013 RMK A01 T02280169  RH  069%=      5-min Rain = 0
KFR1 110825Z 10003KT 23/17 A3013 RMK A01 T02270169  RH  069%=      5-min Rain = 0
KFR1 110826Z 09003KT 23/17 A3013 RMK A01 T02270169  RH  070%=      5-min Rain = 0
KFR1 110827Z 09003KT 23/17 A3013 RMK A01 T02250169  RH  070%=      5-min Rain = 0
KFR1 110828Z 09003KT 22/17 A3013 RMK A01 T02240169  RH  071%=      5-min Rain = 0
KFR1 110829Z 10003KT 22/17 A3013 RMK A01 T02230169  RH  071%=      5-min Rain = 0
KFR1 110830Z 10003KT 22/17 A3013 RMK A01 T02230169  RH  072%=      5-min Rain = 0
KFR1 110831Z 10004KT 22/17 A3013 RMK A01 T02220170  RH  072%=      5-min Rain = 0
KFR1 110832Z 11004KT 22/17 A3013 RMK A01 T02220170  RH  072%=      5-min Rain = 0
KFR1 110833Z 11003KT 22/17 A3013 RMK A01 T02220170  RH  072%=      5-min Rain = 0
KFR1 110834Z 12004KT 22/17 A3013 RMK A01 T02220170  RH  072%=      5-min Rain = 0
KFR1 110835Z 12004KT 22/17 A3013 RMK A01 T02220170  RH  072%=      5-min Rain = 0
KFR1 110836Z 12003KT 22/17 A3013 RMK A01 T02220170  RH  072%=      5-min Rain = 0
KFR1 110837Z 13005KT 22/17 A3013 RMK A01 T02220170  RH  072%=      5-min Rain = 0
KFR1 110838Z 14004KT 22/17 A3013 RMK A01 T02220170  RH  072%=      5-min Rain = 0
KFR1 110839Z 14004KT 22/17 A3013 RMK A01 T02220170  RH  072%=      5-min Rain = 0
KFR1 110840Z 14005KT 22/17 A3013 RMK A01 T02230170  RH  072%=      5-min Rain = 0
KFR1 110841Z 14005KT 22/17 A3013 RMK A01 T02230170  RH  072%=      5-min Rain = 0
KFR1 110842Z 15005KT 22/17 A3013 RMK A01 T02230169  RH  072%=      5-min Rain = 0
KFR1 110843Z 14005KT 22/17 A3013 RMK A01 T02230169  RH  072%=      5-min Rain = 0
KFR1 110844Z 15005KT 22/17 A3013 RMK A01 T02230170  RH  072%=      5-min Rain = 0
KFR1 110845Z 16005KT 22/17 A3013 RMK A01 T02220170  RH  072%=      5-min Rain = 0
KFR1 110846Z 15005KT 22/17 A3013 RMK A01 T02210169  RH  072%=      5-min Rain = 0
KFR1 110847Z 16007KT 22/17 A3013 RMK A01 T02210169  RH  072%=      5-min Rain = 0
KFR1 110848Z 15006KT 22/17 A3013 RMK A01 T02210169  RH  072%=      5-min Rain = 0
KFR1 110849Z 16007KT 22/17 A3013 RMK A01 T02200168  RH  072%=      5-min Rain = 0
KFR1 110850Z 16007KT 22/17 A3013 RMK A01 T02200169  RH  072%=      5-min Rain = 0
KFR1 110851Z 15007KT 22/17 A3012 RMK A01 T02200168  RH  072%=      5-min Rain = 0
KFR1 110852Z 16007KT 22/17 A3012 RMK A01 T02200168  RH  072%=      5-min Rain = 0
KFR1 110853Z 16007KT 22/17 A3012 RMK A01 T02200168  RH  072%=      5-min Rain = 0
KFR1 110854Z 17007KT 22/17 A3012 RMK A01 T02200168  RH  072%=      5-min Rain = 0
KFR1 110855Z 17006KT 22/17 A3012 RMK A01 T02190168  RH  072%=      5-min Rain = 0
KFR1 110856Z 17006KT 22/17 A3012 RMK A01 T02190168  RH  073%=      5-min Rain = 0
KFR1 110857Z 17006KT 22/17 A3012 RMK A01 T02190168  RH  072%=      5-min Rain = 0
KFR1 110858Z 17006KT 22/17 A3012 RMK A01 T02190167  RH  072%=      5-min Rain = 0
KFR1 110859Z 17006KT 22/17 A3012 RMK A01 T02190167  RH  072%=      5-min Rain = 0
KFR1 110900Z 18007KT 22/17 A3012 RMK A01 T02190167  RH  072%=      5-min Rain = 0
KFR1 110901Z 17007KT 22/17 A3012 RMK A01 T02200167  RH  072%=      5-min Rain = 0
KFR1 110902Z 18006KT 22/17 A3012 RMK A01 T02200166  RH  071%=      5-min Rain = 0
KFR1 110903Z 17007KT 22/17 A3012 RMK A01 T02210167  RH  071%=      5-min Rain = 0
KFR1 110904Z 18007KT 22/17 A3012 RMK A01 T02210167  RH  071%=      5-min Rain = 0
KFR1 110905Z 18007KT 22/17 A3012 RMK A01 T02210167  RH  071%=      5-min Rain = 0
KFR1 110906Z 18007KT 22/17 A3012 RMK A01 T02200166  RH  071%=      5-min Rain = 0
KFR1 110907Z 18007KT 22/17 A3012 RMK A01 T02210167  RH  071%=      5-min Rain = 0
KFR1 110908Z 18007KT 22/17 A3012 RMK A01 T02210166  RH  071%=      5-min Rain = 0
KFR1 110909Z 17006KT 22/17 A3012 RMK A01 T02210166  RH  071%=      5-min Rain = 0
KFR1 110910Z 17006KT 22/17 A3013 RMK A01 T02210166  RH  071%=      5-min Rain = 0
KFR1 110911Z 17006KT 22/17 A3013 RMK A01 T02210166  RH  071%=      5-min Rain = 0
KFR1 110912Z 17006KT 22/17 A3013 RMK A01 T02210166  RH  071%=      5-min Rain = 0
KFR1 110913Z 17006KT 22/17 A3013 RMK A01 T02210165  RH  071%=      5-min Rain = 0
KFR1 110914Z 16006KT 22/17 A3013 RMK A01 T02210166  RH  071%=      5-min Rain = 0
KFR1 110915Z 16007KT 22/17 A3013 RMK A01 T02210166  RH  071%=      5-min Rain = 0
KFR1 110916Z 16006KT 22/17 A3013 RMK A01 T02200166  RH  071%=      5-min Rain = 0
KFR1 110917Z 16006KT 22/17 A3013 RMK A01 T02190166  RH  072%=      5-min Rain = 0
KFR1 110918Z 17006KT 22/17 A3013 RMK A01 T02190165  RH  072%=      5-min Rain = 0
KFR1 110919Z 17007KT 22/17 A3013 RMK A01 T02190165  RH  071%=      5-min Rain = 0
KFR1 110920Z 18007KT 22/17 A3013 RMK A01 T02200165  RH  071%=      5-min Rain = 0
KFR1 110921Z 17007KT 22/17 A3013 RMK A01 T02200165  RH  071%=      5-min Rain = 0
KFR1 110922Z 17007KT 22/17 A3013 RMK A01 T02210165  RH  070%=      5-min Rain = 0
KFR1 110923Z 18007KT 22/17 A3013 RMK A01 T02220165  RH  070%=      5-min Rain = 0
KFR1 110924Z 18007KT 22/17 A3013 RMK A01 T02220165  RH  070%=      5-min Rain = 0
KFR1 110925Z 18006KT 22/17 A3013 RMK A01 T02220165  RH  070%=      5-min Rain = 0
KFR1 110926Z 18007KT 22/17 A3013 RMK A01 T02220165  RH  070%=      5-min Rain = 0
KFR1 110927Z 19006KT 22/16 A3013 RMK A01 T02230164  RH  070%=      5-min Rain = 0
KFR1 110928Z 18007KT 22/16 A3013 RMK A01 T02230164  RH  069%=      5-min Rain = 0
KFR1 110929Z 19007KT 22/16 A3013 RMK A01 T02230164  RH  069%=      5-min Rain = 0
KFR1 110930Z 18007KT 22/16 A3013 RMK A01 T02230164  RH  069%=      5-min Rain = 0
KFR1 110931Z 19007KT 22/17 A3013 RMK A01 T02240165  RH  069%=      5-min Rain = 0
KFR1 110932Z 19006KT 22/17 A3013 RMK A01 T02240165  RH  069%=      5-min Rain = 0
KFR1 110933Z 19007KT 22/17 A3013 RMK A01 T02230165  RH  069%=      5-min Rain = 0
KFR1 110934Z 19007KT 22/16 A3013 RMK A01 T02230164  RH  069%=      5-min Rain = 0
KFR1 110935Z 19007KT 22/16 A3013 RMK A01 T02230164  RH  069%=      5-min Rain = 0
KFR1 110936Z 19007KT 22/16 A3012 RMK A01 T02220164  RH  069%=      5-min Rain = 0
KFR1 110937Z 20007KT 22/16 A3012 RMK A01 T02220164  RH  069%=      5-min Rain = 0
KFR1 110938Z 19008KT 22/16 A3012 RMK A01 T02220164  RH  069%=      5-min Rain = 0
KFR1 110939Z 20007KT 22/16 A3012 RMK A01 T02220164  RH  070%=      5-min Rain = 0
KFR1 110940Z 19007KT 22/16 A3012 RMK A01 T02220164  RH  070%=      5-min Rain = 0
KFR1 110941Z 19007KT 22/16 A3012 RMK A01 T02220164  RH  070%=      5-min Rain = 0
KFR1 110942Z 19006KT 22/16 A3012 RMK A01 T02210164  RH  070%=      5-min Rain = 0
KFR1 110943Z 19007KT 22/16 A3012 RMK A01 T02200164  RH  070%=      5-min Rain = 0
KFR1 110944Z 20006KT 22/16 A3012 RMK A01 T02200164  RH  071%=      5-min Rain = 0
KFR1 110945Z 19006KT 22/16 A3012 RMK A01 T02190164  RH  071%=      5-min Rain = 0
KFR1 110946Z 19007KT 22/16 A3012 RMK A01 T02180164  RH  071%=      5-min Rain = 0
KFR1 110947Z 19006KT 22/16 A3012 RMK A01 T02180163  RH  071%=      5-min Rain = 0
KFR1 110948Z 19007KT 22/16 A3012 RMK A01 T02180164  RH  071%=      5-min Rain = 0
KFR1 110949Z 19007KT 22/16 A3012 RMK A01 T02170164  RH  071%=      5-min Rain = 0
KFR1 110950Z 19007KT 22/16 A3012 RMK A01 T02170164  RH  072%=      5-min Rain = 0
KFR1 110951Z 20006KT 22/16 A3012 RMK A01 T02170163  RH  072%=      5-min Rain = 0
KFR1 110952Z 20007KT 22/16 A3012 RMK A01 T02170164  RH  072%=      5-min Rain = 0
KFR1 110953Z 20006KT 22/16 A3012 RMK A01 T02160164  RH  072%=      5-min Rain = 0
KFR1 110954Z 20006KT 22/16 A3012 RMK A01 T02160163  RH  072%=      5-min Rain = 0
KFR1 110955Z 20005KT 22/16 A3012 RMK A01 T02150163  RH  072%=      5-min Rain = 0
KFR1 110956Z 20006KT 21/16 A3012 RMK A01 T02140163  RH  073%=      5-min Rain = 0
KFR1 110957Z 20006KT 21/16 A3012 RMK A01 T02140163  RH  073%=      5-min Rain = 0
KFR1 110958Z 20006KT 21/16 A3012 RMK A01 T02130163  RH  073%=      5-min Rain = 0
KFR1 110959Z 20006KT 21/16 A3012 RMK A01 T02130163  RH  073%=      5-min Rain = 0
KFR1 111000Z 20006KT 21/16 A3012 RMK A01 T02130163  RH  073%=      5-min Rain = 0
KFR1 111001Z 20006KT 21/16 A3012 RMK A01 T02120163  RH  073%=      5-min Rain = 0
KFR1 111002Z 20006KT 21/16 A3012 RMK A01 T02120163  RH  074%=      5-min Rain = 0
KFR1 111003Z 20006KT 21/16 A3012 RMK A01 T02120163  RH  074%=      5-min Rain = 0
KFR1 111004Z 20006KT 21/16 A3012 RMK A01 T02110163  RH  074%=      5-min Rain = 0
KFR1 111005Z 20006KT 21/16 A3012 RMK A01 T02120163  RH  074%=      5-min Rain = 0
KFR1 111006Z 21006KT 21/16 A3012 RMK A01 T02110163  RH  074%=      5-min Rain = 0
KFR1 111007Z 21006KT 21/16 A3012 RMK A01 T02110162  RH  074%=      5-min Rain = 0
KFR1 111008Z 21006KT 21/16 A3012 RMK A01 T02110162  RH  073%=      5-min Rain = 0
KFR1 111009Z 21007KT 21/16 A3012 RMK A01 T02120162  RH  073%=      5-min Rain = 0
KFR1 111010Z 21007KT 21/16 A3012 RMK A01 T02120162  RH  073%=      5-min Rain = 0
KFR1 111011Z 21007KT 21/16 A3012 RMK A01 T02130162  RH  073%=      5-min Rain = 0
KFR1 111012Z 21007KT 21/16 A3012 RMK A01 T02140162  RH  072%=      5-min Rain = 0
KFR1 111013Z 21007KT 21/16 A3012 RMK A01 T02140162  RH  072%=      5-min Rain = 0
KFR1 111014Z 22008KT 22/16 A3012 RMK A01 T02150162  RH  072%=      5-min Rain = 0
KFR1 111015Z 22008KT 22/16 A3012 RMK A01 T02160162  RH  071%=      5-min Rain = 0
KFR1 111016Z 22008KT 22/16 A3012 RMK A01 T02170162  RH  071%=      5-min Rain = 0
KFR1 111017Z 22007KT 22/16 A3012 RMK A01 T02170161  RH  070%=      5-min Rain = 0
KFR1 111018Z 22007KT 22/16 A3012 RMK A01 T02180162  RH  071%=      5-min Rain = 0
KFR1 111019Z 22007KT 22/16 A3012 RMK A01 T02170162  RH  071%=      5-min Rain = 0
KFR1 111020Z 22007KT 22/16 A3012 RMK A01 T02170162  RH  071%=      5-min Rain = 0
KFR1 111021Z 22006KT 22/16 A3012 RMK A01 T02170162  RH  071%=      5-min Rain = 0
KFR1 111022Z 22007KT 22/16 A3012 RMK A01 T02170161  RH  071%=      5-min Rain = 0
KFR1 111023Z 22007KT 22/16 A3012 RMK A01 T02170161  RH  070%=      5-min Rain = 0
KFR1 111024Z 22006KT 22/16 A3012 RMK A01 T02180161  RH  070%=      5-min Rain = 0
KFR1 111025Z 22006KT 22/16 A3012 RMK A01 T02180161  RH  070%=      5-min Rain = 0
KFR1 111026Z 22006KT 22/16 A3012 RMK A01 T02180162  RH  070%=      5-min Rain = 0
KFR1 111027Z 22007KT 22/16 A3012 RMK A01 T02170161  RH  070%=      5-min Rain = 0
KFR1 111028Z 23007KT 22/16 A3012 RMK A01 T02170161  RH  070%=      5-min Rain = 0
KFR1 111029Z 23008KT 22/16 A3012 RMK A01 T02170161  RH  071%=      5-min Rain = 0
KFR1 111030Z 23007KT 22/16 A3012 RMK A01 T02170161  RH  071%=      5-min Rain = 0
KFR1 111031Z 23008KT 22/16 A3011 RMK A01 T02170161  RH  071%=      5-min Rain = 0
KFR1 111032Z 23008KT 22/16 A3011 RMK A01 T02170161  RH  071%=      5-min Rain = 0
KFR1 111033Z 23009KT 22/16 A3011 RMK A01 T02170161  RH  071%=      5-min Rain = 0
KFR1 111034Z 23008KT 22/16 A3011 RMK A01 T02170161  RH  070%=      5-min Rain = 0
KFR1 111035Z 22008KT 22/16 A3011 RMK A01 T02170161  RH  070%=      5-min Rain = 0
KFR1 111036Z 22009KT 22/16 A3011 RMK A01 T02160161  RH  071%=      5-min Rain = 0
KFR1 111037Z 23009KT 22/16 A3011 RMK A01 T02160161  RH  071%=      5-min Rain = 0
KFR1 111038Z 22009KT 22/16 A3011 RMK A01 T02160161  RH  071%=      5-min Rain = 0
KFR1 111039Z 22009KT 22/16 A3011 RMK A01 T02170161  RH  070%=      5-min Rain = 0
KFR1 111040Z 23009KT 22/16 A3011 RMK A01 T02180161  RH  070%=      5-min Rain = 0
KFR1 111041Z 22009KT 22/16 A3011 RMK A01 T02180161  RH  070%=      5-min Rain = 0
KFR1 111042Z 22010KT 22/16 A3011 RMK A01 T02170161  RH  070%=      5-min Rain = 0
KFR1 111043Z 22010KT 22/16 A3011 RMK A01 T02170160  RH  070%=      5-min Rain = 0
KFR1 111044Z 22009KT 22/16 A3011 RMK A01 T02170160  RH  070%=      5-min Rain = 0
KFR1 111045Z 22010KT 22/16 A3011 RMK A01 T02170160  RH  070%=      5-min Rain = 0
KFR1 111046Z 22009KT 22/16 A3011 RMK A01 T02180161  RH  070%=      5-min Rain = 0
KFR1 111047Z 22009KT 22/16 A3011 RMK A01 T02170160  RH  070%=      5-min Rain = 0
KFR1 111048Z 22009KT 22/16 A3011 RMK A01 T02170160  RH  070%=      5-min Rain = 0
KFR1 111049Z 22009KT 22/16 A3011 RMK A01 T02170161  RH  070%=      5-min Rain = 0
KFR1 111050Z 22008KT 22/16 A3011 RMK A01 T02170161  RH  070%=      5-min Rain = 0
KFR1 111051Z 22009KT 22/16 A3011 RMK A01 T02160161  RH  071%=      5-min Rain = 0
KFR1 111052Z 21008KT 22/16 A3011 RMK A01 T02170161  RH  071%=      5-min Rain = 0
KFR1 111053Z 21008KT 22/16 A3011 RMK A01 T02160161  RH  071%=      5-min Rain = 0
KFR1 111054Z 21008KT 22/16 A3011 RMK A01 T02160161  RH  071%=      5-min Rain = 0
KFR1 111055Z 21007KT 22/16 A3011 RMK A01 T02160161  RH  071%=      5-min Rain = 0
KFR1 111056Z 21007KT 22/16 A3011 RMK A01 T02160161  RH  071%=      5-min Rain = 0
KFR1 111057Z 21007KT 22/16 A3011 RMK A01 T02150161  RH  071%=      5-min Rain = 0
KFR1 111058Z 21007KT 22/16 A3012 RMK A01 T02150161  RH  071%=      5-min Rain = 0
KFR1 111059Z 21007KT 22/16 A3012 RMK A01 T02150161  RH  071%=      5-min Rain = 0
KFR1 111100Z 21006KT 22/16 A3012 RMK A01 T02150161  RH  071%=      5-min Rain = 0
KFR1 111101Z 20006KT 21/16 A3012 RMK A01 T02140161  RH  071%=      5-min Rain = 0
KFR1 111102Z 20006KT 21/16 A3012 RMK A01 T02130160  RH  072%=      5-min Rain = 0
KFR1 111103Z 20006KT 21/16 A3012 RMK A01 T02120160  RH  072%=      5-min Rain = 0
KFR1 111104Z 19006KT 21/16 A3012 RMK A01 T02120160  RH  072%=      5-min Rain = 0
KFR1 111105Z 19007KT 21/16 A3012 RMK A01 T02120160  RH  073%=      5-min Rain = 0
KFR1 111106Z 19007KT 21/16 A3012 RMK A01 T02110160  RH  073%=      5-min Rain = 0
KFR1 111107Z 19008KT 21/16 A3012 RMK A01 T02110161  RH  073%=      5-min Rain = 0
KFR1 111108Z 19008KT 21/16 A3012 RMK A01 T02110160  RH  073%=      5-min Rain = 0
KFR1 111109Z 19008KT 21/16 A3012 RMK A01 T02110160  RH  073%=      5-min Rain = 0
KFR1 111110Z 19008KT 21/16 A3012 RMK A01 T02120160  RH  073%=      5-min Rain = 0
KFR1 111111Z 19008KT 21/16 A3012 RMK A01 T02120161  RH  073%=      5-min Rain = 0
KFR1 111112Z 19008KT 21/16 A3012 RMK A01 T02110160  RH  073%=      5-min Rain = 0
KFR1 111113Z 19008KT 21/16 A3012 RMK A01 T02120160  RH  073%=      5-min Rain = 0
KFR1 111114Z 19009KT 21/16 A3012 RMK A01 T02110161  RH  073%=      5-min Rain = 0
KFR1 111115Z 19009KT 21/16 A3012 RMK A01 T02110160  RH  072%=      5-min Rain = 0
KFR1 111116Z 19008KT 21/16 A3012 RMK A01 T02120160  RH  072%=      5-min Rain = 0
KFR1 111117Z 19008KT 21/16 A3012 RMK A01 T02130161  RH  072%=      5-min Rain = 0
KFR1 111118Z 19009KT 21/16 A3012 RMK A01 T02120160  RH  072%=      5-min Rain = 0
KFR1 111119Z 19009KT 21/16 A3012 RMK A01 T02120161  RH  072%=      5-min Rain = 0
KFR1 111120Z 19009KT 21/16 A3012 RMK A01 T02120160  RH  072%=      5-min Rain = 0
KFR1 111121Z 19008KT 21/16 A3012 RMK A01 T02120161  RH  072%=      5-min Rain = 0
KFR1 111122Z 20008KT 21/16 A3012 RMK A01 T02120161  RH  072%=      5-min Rain = 0
KFR1 111123Z 19008KT 21/16 A3012 RMK A01 T02120160  RH  072%=      5-min Rain = 0
KFR1 111124Z 20009KT 21/16 A3012 RMK A01 T02130160  RH  072%=      5-min Rain = 0
KFR1 111125Z 19009KT 21/16 A3012 RMK A01 T02130160  RH  072%=      5-min Rain = 0
KFR1 111126Z 20009KT 21/16 A3012 RMK A01 T02130160  RH  072%=      5-min Rain = 0
KFR1 111127Z 19009KT 21/16 A3012 RMK A01 T02130160  RH  072%=      5-min Rain = 0
KFR1 111128Z 20009KT 21/16 A3012 RMK A01 T02130160  RH  072%=      5-min Rain = 0
KFR1 111129Z 20008KT 21/16 A3012 RMK A01 T02130161  RH  072%=      5-min Rain = 0
KFR1 111130Z 20009KT 21/16 A3012 RMK A01 T02120160  RH  072%=      5-min Rain = 0
KFR1 111131Z 20008KT 21/16 A3012 RMK A01 T02120160  RH  072%=      5-min Rain = 0
KFR1 111132Z 20009KT 21/16 A3011 RMK A01 T02120160  RH  072%=      5-min Rain = 0
KFR1 111133Z 19009KT 21/16 A3011 RMK A01 T02120161  RH  072%=      5-min Rain = 0
KFR1 111134Z 20009KT 21/16 A3011 RMK A01 T02120161  RH  072%=      5-min Rain = 0
KFR1 111135Z 19009KT 21/16 A3011 RMK A01 T02120160  RH  072%=      5-min Rain = 0
KFR1 111136Z 20008KT 21/16 A3011 RMK A01 T02120160  RH  072%=      5-min Rain = 0
KFR1 111137Z 20008KT 21/16 A3011 RMK A01 T02120161  RH  072%=      5-min Rain = 0
KFR1 111138Z 20008KT 21/16 A3011 RMK A01 T02120161  RH  072%=      5-min Rain = 0
KFR1 111139Z 20008KT 21/16 A3011 RMK A01 T02120160  RH  072%=      5-min Rain = 0
KFR1 111140Z 20008KT 21/16 A3011 RMK A01 T02120160  RH  072%=      5-min Rain = 0
KFR1 111141Z 20008KT 21/16 A3011 RMK A01 T02120160  RH  072%=      5-min Rain = 0
KFR1 111142Z 20008KT 21/16 A3012 RMK A01 T02120160  RH  072%=      5-min Rain = 0
KFR1 111143Z 20008KT 21/16 A3012 RMK A01 T02110160  RH  073%=      5-min Rain = 0
KFR1 111144Z 20008KT 21/16 A3012 RMK A01 T02110160  RH  073%=      5-min Rain = 0
KFR1 111145Z 20008KT 21/16 A3012 RMK A01 T02110160  RH  073%=      5-min Rain = 0
KFR1 111146Z 20008KT 21/16 A3012 RMK A01 T02110160  RH  073%=      5-min Rain = 0
KFR1 111147Z 20007KT 21/16 A3012 RMK A01 T02110160  RH  073%=      5-min Rain = 0
KFR1 111148Z 19008KT 21/16 A3012 RMK A01 T02100160  RH  073%=      5-min Rain = 0
KFR1 111149Z 19008KT 21/16 A3012 RMK A01 T02110160  RH  073%=      5-min Rain = 0
KFR1 111150Z 20008KT 21/16 A3012 RMK A01 T02100160  RH  073%=      5-min Rain = 0
KFR1 111151Z 19008KT 21/16 A3012 RMK A01 T02100160  RH  073%=      5-min Rain = 0
KFR1 111152Z 19009KT 21/16 A3012 RMK A01 T02100160  RH  073%=      5-min Rain = 0
KFR1 111153Z 19008KT 21/16 A3012 RMK A01 T02100160  RH  073%=      5-min Rain = 0
KFR1 111154Z 20008KT 21/16 A3012 RMK A01 T02100160  RH  073%=      5-min Rain = 0
KFR1 111155Z 20008KT 21/16 A3012 RMK A01 T02090160  RH  073%=      5-min Rain = 0
KFR1 111156Z 20009KT 21/16 A3012 RMK A01 T02090160  RH  073%=      5-min Rain = 0
KFR1 111157Z 20009KT 21/16 A3012 RMK A01 T02100160  RH  073%=      5-min Rain = 0
KFR1 111158Z 20009KT 21/16 A3012 RMK A01 T02090160  RH  073%=      5-min Rain = 0
KFR1 111159Z 20009KT 21/16 A3012 RMK A01 T02100160  RH  073%=      5-min Rain = 0
KFR1 111200Z 20009KT 21/16 A3012 RMK A01 T02100160  RH  073%=      5-min Rain = 0
KFR1 111201Z 20009KT 21/16 A3012 RMK A01 T02100160  RH  073%=      5-min Rain = 0
KFR1 111202Z 20009KT 21/16 A3012 RMK A01 T02100160  RH  073%=      5-min Rain = 0
KFR1 111203Z 20009KT 21/16 A3011 RMK A01 T02100160  RH  073%=      5-min Rain = 0
KFR1 111204Z 20009KT 21/16 A3011 RMK A01 T02100160  RH  073%=      5-min Rain = 0
KFR1 111205Z 20009KT 21/16 A3011 RMK A01 T02100160  RH  073%=      5-min Rain = 0
KFR1 111206Z 20009KT 21/16 A3011 RMK A01 T02110160  RH  073%=      5-min Rain = 0
KFR1 111207Z 20009KT 21/16 A3011 RMK A01 T02110160  RH  073%=      5-min Rain = 0
KFR1 111208Z 20009KT 21/16 A3011 RMK A01 T02120161  RH  073%=      5-min Rain = 0
KFR1 111209Z 20010KT 21/16 A3011 RMK A01 T02120161  RH  073%=      5-min Rain = 0
KFR1 111210Z 20010KT 21/16 A3011 RMK A01 T02120161  RH  073%=      5-min Rain = 0
KFR1 111211Z 20010KT 21/16 A3011 RMK A01 T02120161  RH  073%=      5-min Rain = 0
KFR1 111212Z 20009KT 21/16 A3011 RMK A01 T02120161  RH  073%=      5-min Rain = 0
KFR1 111213Z 20011KT 21/16 A3011 RMK A01 T02120161  RH  072%=      5-min Rain = 0
KFR1 111214Z 20011KT 21/16 A3011 RMK A01 T02130161  RH  072%=      5-min Rain = 0
KFR1 111215Z 20010KT 21/16 A3011 RMK A01 T02130161  RH  072%=      5-min Rain = 0
KFR1 111216Z 20010KT 21/16 A3011 RMK A01 T02130161  RH  072%=      5-min Rain = 0
KFR1 111217Z 20011KT 21/16 A3011 RMK A01 T02130161  RH  072%=      5-min Rain = 0
KFR1 111218Z 20010KT 21/16 A3011 RMK A01 T02130161  RH  072%=      5-min Rain = 0
KFR1 111219Z 20010KT 21/16 A3011 RMK A01 T02130161  RH  072%=      5-min Rain = 0
KFR1 111220Z 20010KT 21/16 A3011 RMK A01 T02130161  RH  072%=      5-min Rain = 0
KFR1 111221Z 19011KT 21/16 A3011 RMK A01 T02130161  RH  072%=      5-min Rain = 0
KFR1 111222Z 20010KT 21/16 A3011 RMK A01 T02130161  RH  072%=      5-min Rain = 0
KFR1 111223Z 20010KT 21/16 A3011 RMK A01 T02130162  RH  072%=      5-min Rain = 0
KFR1 111224Z 20010KT 21/16 A3012 RMK A01 T02130161  RH  073%=      5-min Rain = 0
KFR1 111225Z 20010KT 21/16 A3012 RMK A01 T02130162  RH  073%=      5-min Rain = 0
KFR1 111226Z 20009KT 21/16 A3012 RMK A01 T02130162  RH  073%=      5-min Rain = 0
KFR1 111227Z 20010KT 21/16 A3012 RMK A01 T02130162  RH  073%=      5-min Rain = 0
KFR1 111228Z 20010KT 21/16 A3012 RMK A01 T02130162  RH  073%=      5-min Rain = 0
KFR1 111229Z 20009KT 21/16 A3012 RMK A01 T02130161  RH  072%=      5-min Rain = 0
KFR1 111230Z 20008KT 21/16 A3012 RMK A01 T02130162  RH  072%=      5-min Rain = 0
KFR1 111231Z 20009KT 21/16 A3012 RMK A01 T02140162  RH  072%=      5-min Rain = 0
KFR1 111232Z 20009KT 21/16 A3012 RMK A01 T02140162  RH  072%=      5-min Rain = 0
KFR1 111233Z 20009KT 22/16 A3012 RMK A01 T02150162  RH  072%=      5-min Rain = 0
KFR1 111234Z 20009KT 22/16 A3012 RMK A01 T02150162  RH  072%=      5-min Rain = 0
KFR1 111235Z 20009KT 22/16 A3012 RMK A01 T02150162  RH  072%=      5-min Rain = 0
KFR1 111236Z 20009KT 22/16 A3012 RMK A01 T02160162  RH  072%=      5-min Rain = 0
KFR1 111237Z 20009KT 22/16 A3012 RMK A01 T02160162  RH  071%=      5-min Rain = 0
KFR1 111238Z 20009KT 22/16 A3012 RMK A01 T02170163  RH  071%=      5-min Rain = 0
KFR1 111239Z 20008KT 22/16 A3012 RMK A01 T02170163  RH  071%=      5-min Rain = 0
KFR1 111240Z 20008KT 22/16 A3012 RMK A01 T02180163  RH  071%=      5-min Rain = 0
KFR1 111241Z 20007KT 22/16 A3012 RMK A01 T02180163  RH  071%=      5-min Rain = 0
KFR1 111242Z 20007KT 22/16 A3012 RMK A01 T02180163  RH  071%=      5-min Rain = 0
KFR1 111243Z 20008KT 22/16 A3012 RMK A01 T02190164  RH  071%=      5-min Rain = 0
KFR1 111244Z 20008KT 22/16 A3012 RMK A01 T02190164  RH  071%=      5-min Rain = 0
KFR1 111245Z 20007KT 22/16 A3012 RMK A01 T02200163  RH  070%=      5-min Rain = 0
KFR1 111246Z 20007KT 22/16 A3012 RMK A01 T02200164  RH  070%=      5-min Rain = 0
KFR1 111247Z 20007KT 22/16 A3012 RMK A01 T02200163  RH  070%=      5-min Rain = 0
KFR1 111248Z 20008KT 22/16 A3012 RMK A01 T02210164  RH  070%=      5-min Rain = 0
KFR1 111249Z 21006KT 22/16 A3012 RMK A01 T02210164  RH  070%=      5-min Rain = 0
KFR1 111250Z 21006KT 22/16 A3012 RMK A01 T02210164  RH  070%=      5-min Rain = 0
KFR1 111251Z 21006KT 22/16 A3012 RMK A01 T02220164  RH  070%=      5-min Rain = 0
KFR1 111252Z 22005KT 22/16 A3012 RMK A01 T02220164  RH  070%=      5-min Rain = 0
KFR1 111253Z 22005KT 22/17 A3012 RMK A01 T02220165  RH  070%=      5-min Rain = 0
KFR1 111254Z 21005KT 22/17 A3012 RMK A01 T02220165  RH  070%=      5-min Rain = 0
KFR1 111255Z 22005KT 22/17 A3012 RMK A01 T02230166  RH  070%=      5-min Rain = 0
KFR1 111256Z 22006KT 22/17 A3012 RMK A01 T02240166  RH  069%=      5-min Rain = 0
KFR1 111257Z 22005KT 23/17 A3012 RMK A01 T02250166  RH  069%=      5-min Rain = 0
KFR1 111258Z 22006KT 23/17 A3012 RMK A01 T02250165  RH  069%=      5-min Rain = 0
KFR1 111259Z 22006KT 23/17 A3012 RMK A01 T02260165  RH  069%=      5-min Rain = 0
KFR1 111300Z 22006KT 23/17 A3012 RMK A01 T02260165  RH  068%=      5-min Rain = 0
KFR1 111301Z 22007KT 23/17 A3012 RMK A01 T02270165  RH  068%=      5-min Rain = 0
KFR1 111302Z 22007KT 23/17 A3012 RMK A01 T02280165  RH  068%=      5-min Rain = 0
KFR1 111303Z 21007KT 23/17 A3012 RMK A01 T02290166  RH  068%=      5-min Rain = 0
KFR1 111304Z 22007KT 23/17 A3012 RMK A01 T02300166  RH  067%=      5-min Rain = 0
KFR1 111305Z 23007KT 23/17 A3012 RMK A01 T02310166  RH  067%=      5-min Rain = 0
KFR1 111306Z 22007KT 23/17 A3012 RMK A01 T02310165  RH  066%=      5-min Rain = 0
KFR1 111307Z 22007KT 23/17 A3012 RMK A01 T02310165  RH  066%=      5-min Rain = 0
KFR1 111308Z 23007KT 23/17 A3012 RMK A01 T02320166  RH  066%=      5-min Rain = 0
KFR1 111309Z 22007KT 23/17 A3012 RMK A01 T02330166  RH  066%=      5-min Rain = 0
KFR1 111310Z 23007KT 23/17 A3012 RMK A01 T02340165  RH  065%=      5-min Rain = 0
KFR1 111311Z 23008KT 23/17 A3012 RMK A01 T02340165  RH  065%=      5-min Rain = 0
KFR1 111312Z 23008KT 23/17 A3012 RMK A01 T02340165  RH  065%=      5-min Rain = 0
KFR1 111313Z 22008KT 24/17 A3012 RMK A01 T02350165  RH  065%=      5-min Rain = 0
KFR1 111314Z 23007KT 24/17 A3012 RMK A01 T02350165  RH  065%=      5-min Rain = 0
KFR1 111315Z 22007KT 24/17 A3012 RMK A01 T02350165  RH  065%=      5-min Rain = 0
KFR1 111316Z 23008KT 24/17 A3012 RMK A01 T02350165  RH  065%=      5-min Rain = 0
KFR1 111317Z 22009KT 24/17 A3012 RMK A01 T02350165  RH  065%=      5-min Rain = 0
KFR1 111318Z 23009KT 24/17 A3012 RMK A01 T02350166  RH  065%=      5-min Rain = 0
KFR1 111319Z 23007KT 24/17 A3012 RMK A01 T02350166  RH  065%=      5-min Rain = 0
KFR1 111320Z 22007KT 24/17 A3012 RMK A01 T02350166  RH  065%=      5-min Rain = 0
KFR1 111321Z 22009KT 24/17 A3012 RMK A01 T02350165  RH  065%=      5-min Rain = 0
KFR1 111322Z 23008KT 24/17 A3012 RMK A01 T02350167  RH  065%=      5-min Rain = 0
KFR1 111323Z 22009KT 24/17 A3012 RMK A01 T02350166  RH  065%=      5-min Rain = 0
KFR1 111324Z 23009KT 24/17 A3012 RMK A01 T02350165  RH  065%=      5-min Rain = 0
KFR1 111325Z 23007KT 24/17 A3012 RMK A01 T02360166  RH  065%=      5-min Rain = 0
KFR1 111326Z 23008KT 24/17 A3012 RMK A01 T02360166  RH  065%=      5-min Rain = 0
KFR1 111327Z 23007KT 24/17 A3012 RMK A01 T02370167  RH  065%=      5-min Rain = 0
KFR1 111328Z 24006KT 24/17 A3013 RMK A01 T02380168  RH  065%=      5-min Rain = 0
KFR1 111329Z 23007KT 24/17 A3013 RMK A01 T02380167  RH  064%=      5-min Rain = 0
KFR1 111330Z 23008KT 24/17 A3013 RMK A01 T02390166  RH  064%=      5-min Rain = 0
KFR1 111331Z 22007KT 24/17 A3013 RMK A01 T02390166  RH  064%=      5-min Rain = 0
KFR1 111332Z 22005KT 24/17 A3013 RMK A01 T02390167  RH  064%=      5-min Rain = 0
KFR1 111333Z 24005KT 24/17 A3013 RMK A01 T02400171  RH  065%=      5-min Rain = 0
KFR1 111334Z 22005KT 24/17 A3013 RMK A01 T02380173  RH  067%=      5-min Rain = 0
KFR1 111335Z 22006KT 24/17 A3013 RMK A01 T02370172  RH  067%=      5-min Rain = 0
KFR1 111336Z 22008KT 24/17 A3013 RMK A01 T02380166  RH  064%=      5-min Rain = 0
KFR1 111337Z 23006KT 24/17 A3013 RMK A01 T02400167  RH  063%=      5-min Rain = 0
KFR1 111338Z 24005KT 24/17 A3013 RMK A01 T02420168  RH  063%=      5-min Rain = 0
KFR1 111339Z 23007KT 24/17 A3013 RMK A01 T02440167  RH  062%=      5-min Rain = 0
KFR1 111340Z 21007KT 24/17 A3013 RMK A01 T02440167  RH  062%=      5-min Rain = 0
KFR1 111341Z 22009KT 24/17 A3013 RMK A01 T02440166  RH  062%=      5-min Rain = 0
KFR1 111342Z 23008KT 24/17 A3013 RMK A01 T02440166  RH  061%=      5-min Rain = 0
KFR1 111343Z 22010KT 24/17 A3013 RMK A01 T02440166  RH  061%=      5-min Rain = 0
KFR1 111344Z 22009KT 25/17 A3013 RMK A01 T02450165  RH  061%=      5-min Rain = 0
KFR1 111345Z 22011KT 25/17 A3013 RMK A01 T02450165  RH  061%=      5-min Rain = 0
KFR1 111346Z 23009KT 25/16 A3013 RMK A01 T02460164  RH  060%=      5-min Rain = 0
KFR1 111347Z 22007KT 25/17 A3013 RMK A01 T02460165  RH  061%=      5-min Rain = 0
KFR1 111348Z 22007KT 25/17 A3013 RMK A01 T02470166  RH  060%=      5-min Rain = 0
KFR1 111349Z 23008KT 25/17 A3013 RMK A01 T02490167  RH  060%=      5-min Rain = 0
KFR1 111350Z 22007KT 25/17 A3013 RMK A01 T02500167  RH  060%=      5-min Rain = 0
KFR1 111351Z 23007KT 25/17 A3013 RMK A01 T02510167  RH  060%=      5-min Rain = 0
KFR1 111352Z 23010KT 25/17 A3013 RMK A01 T02520166  RH  059%=      5-min Rain = 0
KFR1 111353Z 23010KT 25/17 A3013 RMK A01 T02510165  RH  059%=      5-min Rain = 0
KFR1 111354Z 23006KT 25/17 A3013 RMK A01 T02510166  RH  059%=      5-min Rain = 0
KFR1 111355Z 23008KT 25/17 A3013 RMK A01 T02520166  RH  059%=      5-min Rain = 0
KFR1 111356Z 23008KT 25/17 A3013 RMK A01 T02520167  RH  059%=      5-min Rain = 0
KFR1 111357Z 23010KT 25/17 A3013 RMK A01 T02530166  RH  059%=      5-min Rain = 0
KFR1 111358Z 23009KT 25/17 A3013 RMK A01 T02520166  RH  059%=      5-min Rain = 0
KFR1 111359Z 22009KT 25/17 A3013 RMK A01 T02520165  RH  058%=      5-min Rain = 0
KFR1 111400Z 23007KT 25/17 A3014 RMK A01 T02520165  RH  059%=      5-min Rain = 0
KFR1 111401Z 23007KT 25/17 A3014 RMK A01 T02520166  RH  059%=      5-min Rain = 0
KFR1 111402Z 23008KT 25/17 A3014 RMK A01 T02540166  RH  058%=      5-min Rain = 0
KFR1 111403Z 22007KT 26/17 A3013 RMK A01 T02550165  RH  058%=      5-min Rain = 0
KFR1 111404Z 22009KT 26/17 A3013 RMK A01 T02550165  RH  057%=      5-min Rain = 0
KFR1 111405Z 23009KT 26/16 A3014 RMK A01 T02560164  RH  057%=      5-min Rain = 0
KFR1 111406Z 23008KT 26/17 A3013 RMK A01 T02560165  RH  057%=      5-min Rain = 0
KFR1 111407Z 23008KT 26/17 A3013 RMK A01 T02560165  RH  057%=      5-min Rain = 0
KFR1 111408Z 21006KT 26/17 A3013 RMK A01 T02570166  RH  057%=      5-min Rain = 0
KFR1 111409Z 22008KT 26/17 A3013 RMK A01 T02590165  RH  056%=      5-min Rain = 0
KFR1 111410Z 21008KT 26/17 A3013 RMK A01 T02590165  RH  056%=      5-min Rain = 0
KFR1 111411Z 23009KT 26/16 A3013 RMK A01 T02590164  RH  056%=      5-min Rain = 0
KFR1 111412Z 21007KT 26/16 A3013 RMK A01 T02590164  RH  056%=      5-min Rain = 0
KFR1 111413Z 21011KT 26/16 A3013 RMK A01 T02590164  RH  056%=      5-min Rain = 0
KFR1 111414Z 22010KT 26/16 A3013 RMK A01 T02590163  RH  055%=      5-min Rain = 0
KFR1 111415Z 21011KT 26/16 A3013 RMK A01 T02590163  RH  055%=      5-min Rain = 0
KFR1 111416Z 21013KT 26/16 A3013 RMK A01 T02600163  RH  055%=      5-min Rain = 0
KFR1 111417Z 21014KT 26/16 A3013 RMK A01 T02590161  RH  055%=      5-min Rain = 0
KFR1 111418Z 21013KT 26/16 A3013 RMK A01 T02580161  RH  055%=      5-min Rain = 0
KFR1 111419Z 21013KT 26/16 A3013 RMK A01 T02580162  RH  056%=      5-min Rain = 0
KFR1 111420Z 22013KT 26/16 A3013 RMK A01 T02590161  RH  055%=      5-min Rain = 0
KFR1 111421Z 20013KT 26/16 A3013 RMK A01 T02590162  RH  055%=      5-min Rain = 0
KFR1 111422Z 20014KT 26/16 A3013 RMK A01 T02590160  RH  054%=      5-min Rain = 0
KFR1 111423Z 21012KT 26/16 A3013 RMK A01 T02600161  RH  054%=      5-min Rain = 0
KFR1 111424Z 22009KT 26/16 A3013 RMK A01 T02600162  RH  055%=      5-min Rain = 0
KFR1 111425Z 23013KT 26/16 A3013 RMK A01 T02630161  RH  054%=      5-min Rain = 0
KFR1 111426Z 22010KT 26/16 A3013 RMK A01 T02630161  RH  053%=      5-min Rain = 0
KFR1 111427Z 21011KT 26/16 A3013 RMK A01 T02630161  RH  053%=      5-min Rain = 0
KFR1 111428Z 21011KT 26/16 A3013 RMK A01 T02640162  RH  053%=      5-min Rain = 0
KFR1 111429Z 23010KT 27/16 A3013 RMK A01 T02650164  RH  054%=      5-min Rain = 0
KFR1 111430Z 22010KT 27/17 A3013 RMK A01 T02680165  RH  053%=      5-min Rain = 0
KFR1 111431Z 23009KT 27/16 A3013 RMK A01 T02680164  RH  053%=      5-min Rain = 0
KFR1 111432Z 23011G16KT 27/16 A3013 RMK A01 T02670163  RH  053%=      5-min Rain = 0
KFR1 111433Z 22011KT 27/16 A3013 RMK A01 T02670161  RH  052%=      5-min Rain = 0
KFR1 111434Z 23013KT 27/16 A3013 RMK A01 T02670161  RH  052%=      5-min Rain = 0
KFR1 111435Z 22012KT 27/16 A3013 RMK A01 T02660161  RH  052%=      5-min Rain = 0
KFR1 111436Z 22013KT 27/16 A3013 RMK A01 T02660160  RH  052%=      5-min Rain = 0
KFR1 111437Z 22012KT 27/16 A3013 RMK A01 T02660160  RH  052%=      5-min Rain = 0
KFR1 111438Z 21011KT 27/16 A3013 RMK A01 T02650161  RH  053%=      5-min Rain = 0
KFR1 111439Z 20010KT 27/16 A3013 RMK A01 T02660162  RH  053%=      5-min Rain = 0
KFR1 111440Z 22008KT 27/16 A3013 RMK A01 T02680163  RH  053%=      5-min Rain = 0
KFR1 111441Z 22010KT 27/16 A3013 RMK A01 T02700164  RH  052%=      5-min Rain = 0
KFR1 111442Z 22010KT 27/16 A3013 RMK A01 T02720163  RH  051%=      5-min Rain = 0
KFR1 111443Z 23009KT 27/16 A3013 RMK A01 T02720162  RH  051%=      5-min Rain = 0
KFR1 111444Z 23008KT 27/16 A3013 RMK A01 T02720162  RH  051%=      5-min Rain = 0
KFR1 111445Z 23010KT 27/16 A3013 RMK A01 T02720164  RH  052%=      5-min Rain = 0
KFR1 111446Z 23014KT 27/16 A3013 RMK A01 T02720161  RH  050%=      5-min Rain = 0
KFR1 111447Z 23010KT 27/16 A3013 RMK A01 T02720160  RH  050%=      5-min Rain = 0
KFR1 111448Z 22011KT 27/16 A3013 RMK A01 T02720160  RH  050%=      5-min Rain = 0
KFR1 111449Z 23008KT 27/16 A3013 RMK A01 T02730160  RH  050%=      5-min Rain = 0
KFR1 111450Z 24009KT 27/16 A3013 RMK A01 T02740163  RH  051%=      5-min Rain = 0
KFR1 111451Z 24009KT 28/17 A3013 RMK A01 T02750165  RH  051%=      5-min Rain = 0
KFR1 111452Z 24013KT 28/16 A3013 RMK A01 T02750162  RH  050%=      5-min Rain = 0
KFR1 111453Z 23011KT 28/16 A3013 RMK A01 T02760161  RH  050%=      5-min Rain = 0
KFR1 111454Z 23012KT 28/16 A3013 RMK A01 T02760161  RH  050%=      5-min Rain = 0
KFR1 111455Z 22010KT 28/16 A3013 RMK A01 T02750162  RH  050%=      5-min Rain = 0
KFR1 111456Z 22008KT 27/16 A3013 RMK A01 T02740161  RH  050%=      5-min Rain = 0
KFR1 111457Z 23009KT 28/16 A3013 RMK A01 T02750163  RH  050%=      5-min Rain = 0
KFR1 111458Z 24009KT 28/16 A3013 RMK A01 T02750164  RH  051%=      5-min Rain = 0
KFR1 111459Z 24007KT 28/16 A3013 RMK A01 T02750163  RH  051%=      5-min Rain = 0
KFR1 111500Z 23007KT 28/17 A3013 RMK A01 T02750166  RH  051%=      5-min Rain = 0
KFR1 111501Z 23009KT 28/16 A3013 RMK A01 T02780164  RH  050%=      5-min Rain = 0
KFR1 111502Z 22009KT 28/16 A3013 RMK A01 T02800164  RH  049%=      5-min Rain = 0
KFR1 111503Z 20011KT 28/16 A3013 RMK A01 T02820160  RH  047%=      5-min Rain = 0
KFR1 111504Z 20011KT 28/16 A3013 RMK A01 T02830159  RH  047%=      5-min Rain = 0
KFR1 111505Z 21012KT 28/16 A3013 RMK A01 T02840159  RH  047%=      5-min Rain = 0
KFR1 111506Z 23012KT 28/16 A3013 RMK A01 T02840159  RH  047%=      5-min Rain = 0
KFR1 111507Z 21012KT 28/16 A3013 RMK A01 T02840157  RH  046%=      5-min Rain = 0
KFR1 111508Z 23011G16KT 28/16 A3013 RMK A01 T02840160  RH  047%=      5-min Rain = 0
KFR1 111509Z 22013KT 29/16 A3013 RMK A01 T02860157  RH  045%=      5-min Rain = 0
KFR1 111510Z 22012KT 28/16 A3013 RMK A01 T02830155  RH  046%=      5-min Rain = 0
KFR1 111511Z 21010KT 28/16 A3013 RMK A01 T02820157  RH  047%=      5-min Rain = 0
KFR1 111512Z 25009KT 28/16 A3013 RMK A01 T02830159  RH  047%=      5-min Rain = 0
KFR1 111513Z 24010KT 29/16 A3013 RMK A01 T02850158  RH  046%=      5-min Rain = 0
KFR1 111514Z 23012KT 29/16 A3013 RMK A01 T02850158  RH  046%=      5-min Rain = 0
KFR1 111515Z 21009KT 29/16 A3013 RMK A01 T02870160  RH  046%=      5-min Rain = 0
KFR1 111516Z 21011KT 29/16 A3013 RMK A01 T02890159  RH  045%=      5-min Rain = 0
KFR1 111517Z 21012KT 29/16 A3013 RMK A01 T02890157  RH  045%=      5-min Rain = 0
KFR1 111518Z 21015G20KT 29/16 A3012 RMK A01 T02870158  RH  046%=      5-min Rain = 0
KFR1 111519Z 22013KT 29/16 A3013 RMK A01 T02870156  RH  045%=      5-min Rain = 0
KFR1 111520Z 23012KT 29/16 A3013 RMK A01 T02860157  RH  046%=      5-min Rain = 0
KFR1 111521Z 22011KT 29/16 A3013 RMK A01 T02860157  RH  046%=      5-min Rain = 0
KFR1 111522Z 22013KT 29/16 A3013 RMK A01 T02860156  RH  045%=      5-min Rain = 0
KFR1 111523Z 23012KT 29/16 A3013 RMK A01 T02870155  RH  045%=      5-min Rain = 0
KFR1 111524Z 21011KT 29/16 A3012 RMK A01 T02860156  RH  045%=      5-min Rain = 0
KFR1 111525Z 23007KT 29/16 A3012 RMK A01 T02850157  RH  046%=      5-min Rain = 0
KFR1 111526Z 22010KT 29/16 A3012 RMK A01 T02870158  RH  046%=      5-min Rain = 0
KFR1 111527Z 21011KT 29/16 A3012 RMK A01 T02890157  RH  045%=      5-min Rain = 0
KFR1 111528Z 21009KT 29/16 A3012 RMK A01 T02900158  RH  045%=      5-min Rain = 0
KFR1 111529Z 21010KT 29/16 A3012 RMK A01 T02920158  RH  044%=      5-min Rain = 0
KFR1 111530Z 21010KT 29/16 A3012 RMK A01 T02920156  RH  044%=      5-min Rain = 0
KFR1 111531Z 21009KT 29/16 A3012 RMK A01 T02920157  RH  044%=      5-min Rain = 0
KFR1 111532Z 21010KT 29/16 A3012 RMK A01 T02930156  RH  043%=      5-min Rain = 0
KFR1 111533Z 20013KT 29/15 A3012 RMK A01 T02940154  RH  043%=      5-min Rain = 0
KFR1 111534Z 22012KT 29/16 A3012 RMK A01 T02940155  RH  043%=      5-min Rain = 0
KFR1 111535Z 22009KT 30/16 A3012 RMK A01 T02960155  RH  042%=      5-min Rain = 0
KFR1 111536Z 23008KT 30/16 A3012 RMK A01 T02960156  RH  043%=      5-min Rain = 0
KFR1 111537Z 24011KT 30/16 A3012 RMK A01 T02980155  RH  042%=      5-min Rain = 0
KFR1 111538Z 24013KT 30/15 A3012 RMK A01 T02980153  RH  041%=      5-min Rain = 0
KFR1 111539Z 24012KT 30/15 A3012 RMK A01 T02970153  RH  042%=      5-min Rain = 0
KFR1 111540Z 24010KT 30/15 A3012 RMK A01 T02950153  RH  042%=      5-min Rain = 0
KFR1 111541Z 23013KT 30/15 A3012 RMK A01 T02960153  RH  042%=      5-min Rain = 0
KFR1 111542Z 22011KT 30/15 A3012 RMK A01 T02970150  RH  041%=      5-min Rain = 0
KFR1 111543Z 24012KT 30/15 A3012 RMK A01 T02980148  RH  040%=      5-min Rain = 0
KFR1 111544Z 22012G17KT 30/15 A3012 RMK A01 T02960147  RH  040%=      5-min Rain = 0
KFR1 111545Z 22015KT 30/15 A3012 RMK A01 T02950147  RH  041%=      5-min Rain = 0
KFR1 111546Z 22013KT 29/15 A3012 RMK A01 T02940146  RH  041%=      5-min Rain = 0
KFR1 111547Z 23012G18KT 29/15 A3012 RMK A01 T02940147  RH  041%=      5-min Rain = 0
KFR1 111548Z 22012KT 29/15 A3012 RMK A01 T02940147  RH  041%=      5-min Rain = 0
KFR1 111549Z 23009G15KT 30/15 A3012 RMK A01 T02950149  RH  041%=      5-min Rain = 0
KFR1 111550Z 23013KT 30/15 A3013 RMK A01 T02990149  RH  040%=      5-min Rain = 0
KFR1 111551Z 22011KT 30/15 A3012 RMK A01 T02990148  RH  040%=      5-min Rain = 0
KFR1 111552Z 23009KT 30/15 A3012 RMK A01 T02980149  RH  040%=      5-min Rain = 0
KFR1 111553Z 24010KT 30/15 A3013 RMK A01 T02990150  RH  040%=      5-min Rain = 0
KFR1 111554Z 24012KT 30/15 A3012 RMK A01 T03020147  RH  039%=      5-min Rain = 0
KFR1 111555Z 24013KT 30/15 A3013 RMK A01 T03010146  RH  039%=      5-min Rain = 0
KFR1 111556Z 24014KT 30/15 A3012 RMK A01 T02980147  RH  040%=      5-min Rain = 0
KFR1 111557Z 21011KT 30/15 A3012 RMK A01 T02990148  RH  040%=      5-min Rain = 0
KFR1 111558Z 21011KT 30/15 A3012 RMK A01 T03010147  RH  039%=      5-min Rain = 0
KFR1 111559Z 21012KT 30/15 A3012 RMK A01 T03000146  RH  039%=      5-min Rain = 0
KFR1 111600Z 21012KT 30/15 A3012 RMK A01 T02990146  RH  039%=      5-min Rain = 0
KFR1 111601Z 21009KT 30/15 A3012 RMK A01 T03000146  RH  039%=      5-min Rain = 0
KFR1 111602Z 21010G15KT 30/15 A3012 RMK A01 T03020146  RH  039%=      5-min Rain = 0
KFR1 111603Z 21012KT 30/15 A3012 RMK A01 T03020146  RH  039%=      5-min Rain = 0
KFR1 111604Z 21011KT 30/15 A3012 RMK A01 T03010147  RH  039%=      5-min Rain = 0
KFR1 111605Z 22011KT 30/15 A3012 RMK A01 T03000147  RH  039%=      5-min Rain = 0
KFR1 111606Z 21008KT 30/15 A3012 RMK A01 T02990147  RH  039%=      5-min Rain = 0
KFR1 111607Z 22011KT 30/15 A3012 RMK A01 T03000150  RH  040%=      5-min Rain = 0
KFR1 111608Z 21014KT 30/15 A3012 RMK A01 T03030148  RH  039%=      5-min Rain = 0
KFR1 111609Z 22011KT 30/15 A3012 RMK A01 T03020148  RH  039%=      5-min Rain = 0
KFR1 111610Z 21010KT 30/15 A3012 RMK A01 T03010148  RH  040%=      5-min Rain = 0
KFR1 111611Z 22009KT 30/15 A3012 RMK A01 T03000149  RH  040%=      5-min Rain = 0
KFR1 111612Z 21012G18KT 30/15 A3012 RMK A01 T03030151  RH  040%=      5-min Rain = 0
KFR1 111613Z 21013KT 31/15 A3012 RMK A01 T03050148  RH  039%=      5-min Rain = 0
KFR1 111614Z 21011KT 30/15 A3012 RMK A01 T03040150  RH  039%=      5-min Rain = 0
KFR1 111615Z 20009KT 31/15 A3012 RMK A01 T03060152  RH  039%=      5-min Rain = 0
KFR1 111616Z 21009KT 31/15 A3012 RMK A01 T03080152  RH  039%=      5-min Rain = 0
KFR1 111617Z 21012KT 31/15 A3012 RMK A01 T03080151  RH  038%=      5-min Rain = 0
KFR1 111618Z 22015KT 31/15 A3012 RMK A01 T03080150  RH  038%=      5-min Rain = 0
KFR1 111619Z 23013KT 31/15 A3012 RMK A01 T03050148  RH  038%=      5-min Rain = 0
KFR1 111620Z 20010KT 30/15 A3012 RMK A01 T03030149  RH  039%=      5-min Rain = 0
KFR1 111621Z 20012KT 30/15 A3012 RMK A01 T03030151  RH  040%=      5-min Rain = 0
KFR1 111622Z 21010G15KT 31/15 A3012 RMK A01 T03050152  RH  039%=      5-min Rain = 0
KFR1 111623Z 21014KT 31/15 A3012 RMK A01 T03070150  RH  039%=      5-min Rain = 0
KFR1 111624Z 23016KT 31/15 A3012 RMK A01 T03070149  RH  038%=      5-min Rain = 0
KFR1 111625Z 23011KT 31/15 A3012 RMK A01 T03060148  RH  038%=      5-min Rain = 0
KFR1 111626Z 22012KT 31/15 A3012 RMK A01 T03050149  RH  039%=      5-min Rain = 0
KFR1 111627Z 22011KT 31/15 A3012 RMK A01 T03050150  RH  039%=      5-min Rain = 0
KFR1 111628Z 22009KT 31/15 A3012 RMK A01 T03060150  RH  039%=      5-min Rain = 0
KFR1 111629Z 23009KT 31/15 A3012 RMK A01 T03050151  RH  039%=      5-min Rain = 0
KFR1 111630Z 21008KT 31/15 A3012 RMK A01 T03060152  RH  039%=      5-min Rain = 0
KFR1 111631Z 21009KT 31/15 A3012 RMK A01 T03080152  RH  039%=      5-min Rain = 0
KFR1 111632Z 21011KT 31/15 A3012 RMK A01 T03080153  RH  039%=      5-min Rain = 0
KFR1 111633Z 22012KT 31/15 A3012 RMK A01 T03080150  RH  038%=      5-min Rain = 0
KFR1 111634Z 22014KT 31/15 A3012 RMK A01 T03070150  RH  039%=      5-min Rain = 0
KFR1 111635Z 22013KT 31/15 A3012 RMK A01 T03070150  RH  038%=      5-min Rain = 0
KFR1 111636Z 21014KT 31/15 A3012 RMK A01 T03070150  RH  039%=      5-min Rain = 0
KFR1 111637Z 22009KT 31/15 A3012 RMK A01 T03050151  RH  039%=      5-min Rain = 0
KFR1 111638Z 21014KT 31/15 A3012 RMK A01 T03050152  RH  039%=      5-min Rain = 0
KFR1 111639Z 21013KT 31/15 A3011 RMK A01 T03070150  RH  039%=      5-min Rain = 0
KFR1 111640Z 21014KT 31/15 A3012 RMK A01 T03070151  RH  039%=      5-min Rain = 0
KFR1 111641Z 20010KT 31/15 A3012 RMK A01 T03070153  RH  039%=      5-min Rain = 0
KFR1 111642Z 21007KT 31/15 A3012 RMK A01 T03070154  RH  039%=      5-min Rain = 0
KFR1 111643Z 22009KT 31/15 A3012 RMK A01 T03100153  RH  039%=      5-min Rain = 0
KFR1 111644Z 19010KT 31/16 A3012 RMK A01 T03110157  RH  039%=      5-min Rain = 0
KFR1 111645Z 21014KT 32/15 A3011 RMK A01 T03150153  RH  038%=      5-min Rain = 0
KFR1 111646Z 22013KT 31/15 A3012 RMK A01 T03110150  RH  038%=      5-min Rain = 0
KFR1 111647Z 21010KT 31/15 A3011 RMK A01 T03080149  RH  038%=      5-min Rain = 0
KFR1 111648Z 22012G17KT 31/15 A3011 RMK A01 T03070151  RH  039%=      5-min Rain = 0
KFR1 111649Z 23015KT 31/15 A3011 RMK A01 T03070152  RH  039%=      5-min Rain = 0
KFR1 111650Z 20013KT 31/15 A3011 RMK A01 T03070154  RH  039%=      5-min Rain = 0
KFR1 111651Z 22013KT 31/15 A3011 RMK A01 T03090154  RH  039%=      5-min Rain = 0
KFR1 111652Z 22012KT 31/15 A3011 RMK A01 T03110154  RH  039%=      5-min Rain = 0
KFR1 111653Z 20012KT 31/15 A3011 RMK A01 T03130154  RH  038%=      5-min Rain = 0
KFR1 111654Z 21014KT 31/15 A3011 RMK A01 T03120152  RH  038%=      5-min Rain = 0
KFR1 111655Z 21012KT 31/15 A3011 RMK A01 T03110152  RH  038%=      5-min Rain = 0
KFR1 111656Z 21008KT 31/15 A3011 RMK A01 T03080152  RH  039%=      5-min Rain = 0
KFR1 111657Z 21011KT 31/15 A3011 RMK A01 T03080152  RH  039%=      5-min Rain = 0
KFR1 111658Z 22012KT 31/15 A3011 RMK A01 T03100151  RH  038%=      5-min Rain = 0
KFR1 111659Z 22011G16KT 31/15 A3011 RMK A01 T03100151  RH  038%=      5-min Rain = 0
KFR1 111700Z 20010KT 31/16 A3011 RMK A01 T03110155  RH  039%=      5-min Rain = 0
KFR1 111701Z 21009KT 31/16 A3011 RMK A01 T03120155  RH  039%=      5-min Rain = 0
KFR1 111702Z 21011KT 32/16 A3011 RMK A01 T03150156  RH  038%=      5-min Rain = 0
KFR1 111703Z 22013KT 32/15 A3011 RMK A01 T03160154  RH  037%=      5-min Rain = 0
KFR1 111704Z 22012KT 32/15 A3011 RMK A01 T03150152  RH  037%=      5-min Rain = 0
KFR1 111705Z 21013KT 32/16 A3011 RMK A01 T03150155  RH  038%=      5-min Rain = 0
KFR1 111706Z 20015KT 32/16 A3011 RMK A01 T03160156  RH  038%=      5-min Rain = 0
KFR1 111707Z 19010KT 31/16 A3011 RMK A01 T03110155  RH  039%=      5-min Rain = 0
KFR1 111708Z 22013G18KT 31/15 A3011 RMK A01 T03080154  RH  039%=      5-min Rain = 0
KFR1 111709Z 23012KT 31/15 A3011 RMK A01 T03080151  RH  039%=      5-min Rain = 0
KFR1 111710Z 22012KT 31/15 A3011 RMK A01 T03100153  RH  039%=      5-min Rain = 0
KFR1 111711Z 21011KT 31/15 A3011 RMK A01 T03130154  RH  038%=      5-min Rain = 0
KFR1 111712Z 22015KT 31/16 A3011 RMK A01 T03120155  RH  039%=      5-min Rain = 0
KFR1 111713Z 22013KT 31/15 A3011 RMK A01 T03120154  RH  039%=      5-min Rain = 0
KFR1 111714Z 22012KT 31/15 A3011 RMK A01 T03120153  RH  038%=      5-min Rain = 0
KFR1 111715Z 21014KT 31/15 A3011 RMK A01 T03120152  RH  038%=      5-min Rain = 0
KFR1 111716Z 21009G15KT 31/15 A3011 RMK A01 T03100153  RH  039%=      5-min Rain = 0
KFR1 111717Z 21014KT 31/16 A3011 RMK A01 T03120155  RH  039%=      5-min Rain = 0
KFR1 111718Z 21011KT 31/15 A3011 RMK A01 T03140153  RH  038%=      5-min Rain = 0
KFR1 111719Z 21012KT 31/15 A3011 RMK A01 T03140153  RH  038%=      5-min Rain = 0
KFR1 111720Z 23011KT 32/15 A3011 RMK A01 T03150154  RH  038%=      5-min Rain = 0
KFR1 111721Z 24014KT 32/15 A3011 RMK A01 T03170153  RH  037%=      5-min Rain = 0
KFR1 111722Z 19015KT 32/15 A3011 RMK A01 T03190154  RH  037%=      5-min Rain = 0
KFR1 111723Z 19016KT 32/15 A3011 RMK A01 T03190153  RH  037%=      5-min Rain = 0
KFR1 111724Z 19012KT 32/15 A3011 RMK A01 T03160154  RH  038%=      5-min Rain = 0
KFR1 111725Z 20011KT 32/15 A3011 RMK A01 T03170154  RH  037%=      5-min Rain = 0
KFR1 111726Z 21010KT 32/15 A3011 RMK A01 T03160152  RH  037%=      5-min Rain = 0
KFR1 111727Z 21010G15KT 31/16 A3011 RMK A01 T03140155  RH  038%=      5-min Rain = 0
KFR1 111728Z 21011KT 32/15 A3011 RMK A01 T03150154  RH  038%=      5-min Rain = 0
KFR1 111729Z 21012KT 32/15 A3011 RMK A01 T03170152  RH  037%=      5-min Rain = 0
KFR1 111730Z 21014KT 32/15 A3011 RMK A01 T03220152  RH  036%=      5-min Rain = 0
KFR1 111731Z 21015KT 32/15 A3011 RMK A01 T03200148  RH  035%=      5-min Rain = 0
KFR1 111732Z 22015KT 32/15 A3011 RMK A01 T03170148  RH  036%=      5-min Rain = 0
KFR1 111733Z 20018KT 32/15 A301 RMK A01 T03170145  RH  035%=      5-min Rain = 0
KFR1 111734Z 22014KT 32/14 A3011 RMK A01 T03150144  RH  036%=      5-min Rain = 0
KFR1 111735Z 20017KT 31/15 A301 RMK A01 T03140146  RH  036%=      5-min Rain = 0
KFR1 111736Z 19013KT 32/15 A3011 RMK A01 T03150148  RH  036%=      5-min Rain = 0
KFR1 111737Z 19014G19KT 32/15 A3011 RMK A01 T03150149  RH  037%=      5-min Rain = 0
KFR1 111738Z 19014KT 32/15 A3011 RMK A01 T03150149  RH  037%=      5-min Rain = 0
KFR1 111739Z 19012KT 32/15 A3011 RMK A01 T03160148  RH  036%=      5-min Rain = 0
KFR1 111740Z 20012KT 32/15 A3011 RMK A01 T03180149  RH  036%=      5-min Rain = 0
KFR1 111741Z 20011G16KT 32/15 A301 RMK A01 T03190149  RH  036%=      5-min Rain = 0
KFR1 111742Z 21014KT 32/15 A301 RMK A01 T03220150  RH  035%=      5-min Rain = 0
KFR1 111743Z 20013KT 32/15 A3011 RMK A01 T03200148  RH  035%=      5-min Rain = 0
KFR1 111744Z 20010KT 32/15 A3011 RMK A01 T03160148  RH  036%=      5-min Rain = 0
KFR1 111745Z 20008KT 31/15 A3011 RMK A01 T03130149  RH  037%=      5-min Rain = 0
KFR1 111746Z 19008KT 31/15 A3011 RMK A01 T03140149  RH  037%=      5-min Rain = 0
KFR1 111747Z 20009KT 32/15 A301 RMK A01 T03160152  RH  037%=      5-min Rain = 0
KFR1 111748Z 21010KT 32/15 A301 RMK A01 T03190153  RH  037%=      5-min Rain = 0
KFR1 111749Z 19010KT 32/15 A301 RMK A01 T03210153  RH  036%=      5-min Rain = 0
KFR1 111750Z 20013KT 32/15 A301 RMK A01 T03230151  RH  035%=      5-min Rain = 0
KFR1 111751Z 20008KT 32/15 A301 RMK A01 T03210146  RH  035%=      5-min Rain = 0
KFR1 111752Z 19016KT 32/15 A301 RMK A01 T03220149  RH  035%=      5-min Rain = 0
KFR1 111753Z 20016KT 33/15 A301 RMK A01 T03250149  RH  034%=      5-min Rain = 0
KFR1 111754Z 20013KT 33/15 A301 RMK A01 T03270151  RH  035%=      5-min Rain = 0
KFR1 111755Z 20013KT 33/15 A301 RMK A01 T03270153  RH  035%=      5-min Rain = 0
KFR1 111756Z 20015KT 33/15 A301 RMK A01 T03280147  RH  034%=      5-min Rain = 0
KFR1 111757Z 21013KT 33/15 A301 RMK A01 T03250145  RH  034%=      5-min Rain = 0
KFR1 111758Z 20013KT 32/15 A301 RMK A01 T03230146  RH  034%=      5-min Rain = 0
KFR1 111759Z 20013KT 32/14 A301 RMK A01 T03240144  RH  034%=      5-min Rain = 0
KFR1 111800Z 20010KT 32/14 A301 RMK A01 T03210143  RH  034%=      5-min Rain = 0
KFR1 111801Z 20013KT 32/14 A301 RMK A01 T03220144  RH  034%=      5-min Rain = 0
KFR1 111802Z 18014G19KT 33/14 A301 RMK A01 T03250143  RH  033%=      5-min Rain = 0
KFR1 111803Z 17014KT 33/14 A301 RMK A01 T03270143  RH  033%=      5-min Rain = 0
KFR1 111804Z 18018KT 33/14 A301 RMK A01 T03270142  RH  033%=      5-min Rain = 0
KFR1 111805Z 18016G21KT 33/14 A301 RMK A01 T03250139  RH  032%=      5-min Rain = 0
KFR1 111806Z 17011KT 32/14 A301 RMK A01 T03200140  RH  034%=      5-min Rain = 0
KFR1 111807Z 17011KT 32/14 A301 RMK A01 T03220143  RH  034%=      5-min Rain = 0
KFR1 111808Z 19014G19KT 32/14 A301 RMK A01 T03240142  RH  033%=      5-min Rain = 0
KFR1 111809Z 19014G19KT 33/14 A301 RMK A01 T03250139  RH  032%=      5-min Rain = 0
KFR1 111810Z 21011KT 32/14 A301 RMK A01 T03240139  RH  033%=      5-min Rain = 0
KFR1 111811Z 20016G22KT 33/14 A3009 RMK A01 T03250139  RH  032%=      5-min Rain = 0
KFR1 111812Z 22016G21KT 33/14 A3009 RMK A01 T03270138  RH  032%=      5-min Rain = 0
KFR1 111813Z 21015KT 33/14 A301 RMK A01 T03280138  RH  032%=      5-min Rain = 0
KFR1 111814Z 21014KT 33/14 A3009 RMK A01 T03250137  RH  032%=      5-min Rain = 0
KFR1 111815Z 19013KT 32/14 A301 RMK A01 T03230141  RH  033%=      5-min Rain = 0
KFR1 111816Z 19012KT 32/14 A3009 RMK A01 T03230140  RH  033%=      5-min Rain = 0
KFR1 111817Z 19016KT 32/14 A3009 RMK A01 T03230142  RH  033%=      5-min Rain = 0
KFR1 111818Z 19021G26KT 33/14 A3009 RMK A01 T03250138  RH  032%=      5-min Rain = 0
KFR1 111819Z 20016G21KT 32/14 A3009 RMK A01 T03240135  RH  032%=      5-min Rain = 0
KFR1 111820Z 18014G20KT 32/14 A3009 RMK A01 T03220138  RH  033%=      5-min Rain = 0
KFR1 111821Z 18014G19KT 33/14 A3009 RMK A01 T03250138  RH  032%=      5-min Rain = 0
KFR1 111822Z 17013G18KT 32/14 A3009 RMK A01 T03230138  RH  033%=      5-min Rain = 0
KFR1 111823Z 17009KT 32/14 A3009 RMK A01 T03210136  RH  033%=      5-min Rain = 0
KFR1 111824Z 20015G22KT 32/14 A3009 RMK A01 T03200138  RH  033%=      5-min Rain = 0
KFR1 111825Z 19016G22KT 32/14 A3009 RMK A01 T03220138  RH  033%=      5-min Rain = 0
KFR1 111826Z 19011G18KT 33/14 A3009 RMK A01 T03250141  RH  033%=      5-min Rain = 0
KFR1 111827Z 17014KT 33/14 A3009 RMK A01 T03270142  RH  033%=      5-min Rain = 0
KFR1 111828Z 16014KT 33/14 A3009 RMK A01 T03280142  RH  032%=      5-min Rain = 0
KFR1 111829Z 19015KT 33/14 A3009 RMK A01 T03280144  RH  033%=      5-min Rain = 0
KFR1 111830Z 19016KT 33/14 A3009 RMK A01 T03280141  RH  032%=      5-min Rain = 0
KFR1 111831Z 21011KT 33/15 A3009 RMK A01 T03270145  RH  033%=      5-min Rain = 0
KFR1 111832Z 21017KT 33/15 A3009 RMK A01 T03300145  RH  033%=      5-min Rain = 0
KFR1 111833Z 19015KT 33/14 A3009 RMK A01 T03300143  RH  032%=      5-min Rain = 0
KFR1 111834Z 18013KT 32/14 A3009 RMK A01 T03240141  RH  033%=      5-min Rain = 0
KFR1 111835Z 20012KT 32/14 A3009 RMK A01 T03220144  RH  034%=      5-min Rain = 0
KFR1 111836Z 20010KT 32/14 A3009 RMK A01 T03240143  RH  033%=      5-min Rain = 0
KFR1 111837Z 18014KT 33/14 A3009 RMK A01 T03260143  RH  033%=      5-min Rain = 0
KFR1 111838Z 18009KT 33/14 A3009 RMK A01 T03260141  RH  033%=      5-min Rain = 0
KFR1 111839Z 18007KT 33/14 A3009 RMK A01 T03250139  RH  032%=      5-min Rain = 0
KFR1 111840Z 18008KT 32/14 A3009 RMK A01 T03240139  RH  033%=      5-min Rain = 0
KFR1 111841Z 22011G17KT 33/14 A3009 RMK A01 T03250143  RH  033%=      5-min Rain = 0
KFR1 111842Z 23014KT 33/14 A3009 RMK A01 T03280139  RH  032%=      5-min Rain = 0
KFR1 111843Z 23015G20KT 33/14 A3008 RMK A01 T03270139  RH  032%=      5-min Rain = 0
KFR1 111844Z 23018KT 33/14 A3008 RMK A01 T03280138  RH  032%=      5-min Rain = 0
KFR1 111845Z 21016KT 33/14 A3008 RMK A01 T03270138  RH  032%=      5-min Rain = 0
KFR1 111846Z 22011KT 33/14 A3008 RMK A01 T03260137  RH  032%=      5-min Rain = 0
KFR1 111847Z 20014KT 32/14 A3008 RMK A01 T03220138  RH  033%=      5-min Rain = 0
KFR1 111848Z 20012KT 32/14 A3008 RMK A01 T03230139  RH  033%=      5-min Rain = 0
KFR1 111849Z 21012KT 33/14 A3008 RMK A01 T03250139  RH  032%=      5-min Rain = 0
KFR1 111850Z 21011KT 33/14 A3008 RMK A01 T03250137  RH  032%=      5-min Rain = 0
KFR1 111851Z 21006KT 33/14 A3008 RMK A01 T03270141  RH  033%=      5-min Rain = 0
KFR1 111852Z 18012G18KT 33/14 A3008 RMK A01 T03320142  RH  032%=      5-min Rain = 0
KFR1 111853Z 18014KT 33/14 A3008 RMK A01 T03320137  RH  031%=      5-min Rain = 0
KFR1 111854Z 17011KT 33/14 A3008 RMK A01 T03290136  RH  031%=      5-min Rain = 0
KFR1 111855Z 18011KT 33/13 A3008 RMK A01 T03260134  RH  031%=      5-min Rain = 0
KFR1 111856Z 19009KT 32/14 A3008 RMK A01 T03240137  RH  032%=      5-min Rain = 0
KFR1 111857Z 18009KT 33/14 A3008 RMK A01 T03250135  RH  032%=      5-min Rain = 0
KFR1 111858Z 19008KT 33/14 A3008 RMK A01 T03250135  RH  031%=      5-min Rain = 0
KFR1 111859Z 20009KT 33/14 A3008 RMK A01 T03280137  RH  032%=      5-min Rain = 0
KFR1 111900Z 19012KT 33/14 A3008 RMK A01 T03320136  RH  031%=      5-min Rain = 0
KFR1 111901Z 19013G19KT 33/13 A3008 RMK A01 T03330133  RH  030%=      5-min Rain = 0
KFR1 111902Z 20014KT 33/13 A3007 RMK A01 T03340133  RH  030%=      5-min Rain = 0
KFR1 111903Z 20013KT 34/13 A3007 RMK A01 T03360132  RH  029%=      5-min Rain = 0
KFR1 111904Z 20014KT 34/13 A3008 RMK A01 T03370134  RH  029%=      5-min Rain = 0
KFR1 111905Z 19013KT 34/13 A3008 RMK A01 T03390133  RH  029%=      5-min Rain = 0
KFR1 111906Z 21011KT 33/13 A3007 RMK A01 T03340130  RH  029%=      5-min Rain = 0
KFR1 111907Z 21011KT 33/13 A3007 RMK A01 T03280129  RH  030%=      5-min Rain = 0
KFR1 111908Z 20011KT 33/13 A3007 RMK A01 T03270130  RH  030%=      5-min Rain = 0
KFR1 111909Z 22011KT 33/13 A3007 RMK A01 T03290128  RH  030%=      5-min Rain = 0
KFR1 111910Z 20015G21KT 33/13 A3007 RMK A01 T03310130  RH  030%=      5-min Rain = 0
KFR1 111911Z 21014KT 34/13 A3007 RMK A01 T03350132  RH  029%=      5-min Rain = 0
KFR1 111912Z 21013KT 34/13 A3007 RMK A01 T03350131  RH  029%=      5-min Rain = 0
KFR1 111913Z 21014KT 34/13 A3007 RMK A01 T03370132  RH  029%=      5-min Rain = 0
KFR1 111914Z 20014KT 34/13 A3007 RMK A01 T03380132  RH  029%=      5-min Rain = 0
KFR1 111915Z 20015G20KT 34/13 A3007 RMK A01 T03390132  RH  029%=      5-min Rain = 0
KFR1 111916Z 18015KT 34/13 A3007 RMK A01 T03380134  RH  029%=      5-min Rain = 0
KFR1 111917Z 19013KT 34/13 A3007 RMK A01 T03400134  RH  029%=      5-min Rain = 0
KFR1 111918Z 20012KT 34/14 A3007 RMK A01 T03400135  RH  029%=      5-min Rain = 0
KFR1 111919Z 19012KT 34/13 A3007 RMK A01 T03380132  RH  029%=      5-min Rain = 0
KFR1 111920Z 19008KT 34/14 A3007 RMK A01 T03370136  RH  030%=      5-min Rain = 0
KFR1 111921Z 17012KT 34/14 A3007 RMK A01 T03420138  RH  029%=      5-min Rain = 0
KFR1 111922Z 17010KT 34/13 A3007 RMK A01 T03420134  RH  028%=      5-min Rain = 0
KFR1 111923Z 18012KT 34/13 A3006 RMK A01 T03390134  RH  029%=      5-min Rain = 0
KFR1 111924Z 17009G14KT 34/14 A3006 RMK A01 T03390138  RH  030%=      5-min Rain = 0
KFR1 111925Z 16013KT 34/13 A3006 RMK A01 T03400134  RH  029%=      5-min Rain = 0
KFR1 111926Z 18016KT 34/13 A3006 RMK A01 T03380133  RH  029%=      5-min Rain = 0
KFR1 111927Z 18015KT 33/13 A3006 RMK A01 T03320130  RH  029%=      5-min Rain = 0
KFR1 111928Z 18014KT 33/13 A3006 RMK A01 T03290130  RH  030%=      5-min Rain = 0
KFR1 111929Z 20018G25KT 33/13 A3006 RMK A01 T03320133  RH  030%=      5-min Rain = 0
KFR1 111930Z 19017G24KT 34/13 A3006 RMK A01 T03360132  RH  029%=      5-min Rain = 0
KFR1 111931Z 20014G19KT 34/13 A3006 RMK A01 T03390133  RH  029%=      5-min Rain = 0
KFR1 111932Z 20015G21KT 34/13 A3006 RMK A01 T03390131  RH  029%=      5-min Rain = 0
KFR1 111933Z 20014KT 34/13 A3006 RMK A01 T03370132  RH  029%=      5-min Rain = 0
KFR1 111934Z 19011G16KT 34/13 A3006 RMK A01 T03350130  RH  029%=      5-min Rain = 0
KFR1 111935Z 19012G17KT 33/13 A3006 RMK A01 T03320129  RH  029%=      5-min Rain = 0
KFR1 111936Z 19017KT 33/13 A3006 RMK A01 T03320128  RH  029%=      5-min Rain = 0
KFR1 111937Z 19017KT 34/13 A3006 RMK A01 T03360128  RH  028%=      5-min Rain = 0
KFR1 111938Z 19015KT 34/13 A3006 RMK A01 T03380126  RH  028%=      5-min Rain = 0
KFR1 111939Z 18014KT 34/13 A3006 RMK A01 T03390128  RH  028%=      5-min Rain = 0
KFR1 111940Z 19013KT 34/13 A3006 RMK A01 T03400131  RH  028%=      5-min Rain = 0
KFR1 111941Z 18012KT 34/13 A3006 RMK A01 T03410129  RH  028%=      5-min Rain = 0
KFR1 111942Z 17010KT 34/13 A3006 RMK A01 T03390130  RH  028%=      5-min Rain = 0
KFR1 111943Z 18011KT 34/13 A3006 RMK A01 T03400131  RH  028%=      5-min Rain = 0
KFR1 111944Z 19007KT 34/13 A3006 RMK A01 T03410130  RH  028%=      5-min Rain = 0
KFR1 111945Z 20015G21KT 34/13 A3005 RMK A01 T03410132  RH  028%=      5-min Rain = 0
KFR1 111946Z 21014KT 34/13 A3005 RMK A01 T03420128  RH  027%=      5-min Rain = 0
KFR1 111947Z 19015G20KT 34/13 A3005 RMK A01 T03390129  RH  028%=      5-min Rain = 0
KFR1 111948Z 20013KT 34/13 A3005 RMK A01 T03410130  RH  028%=      5-min Rain = 0
KFR1 111949Z 18009KT 34/13 A3006 RMK A01 T03420130  RH  028%=      5-min Rain = 0
KFR1 111950Z 16010KT 34/13 A3006 RMK A01 T03440130  RH  027%=      5-min Rain = 0
KFR1 111951Z 15007G12KT 35/13 A3005 RMK A01 T03450128  RH  027%=      5-min Rain = 0
KFR1 111952Z 17011G18KT 35/13 A3005 RMK A01 T03450128  RH  027%=      5-min Rain = 0
KFR1 111953Z 16016G22KT 35/12 A3005 RMK A01 T03450121  RH  026%=      5-min Rain = 0
KFR1 111954Z 17013KT 35/12 A3005 RMK A01 T03460123  RH  026%=      5-min Rain = 0
KFR1 111955Z 18014G20KT 35/12 A3005 RMK A01 T03480119  RH  025%=      5-min Rain = 0
KFR1 111956Z 17011KT 35/12 A3005 RMK A01 T03450118  RH  025%=      5-min Rain = 0
KFR1 111957Z 16013G19KT 34/12 A3005 RMK A01 T03430121  RH  026%=      5-min Rain = 0
KFR1 111958Z 17012KT 34/12 A3005 RMK A01 T03400119  RH  026%=      5-min Rain = 0
KFR1 111959Z 19017KT 34/12 A3005 RMK A01 T03370118  RH  026%=      5-min Rain = 0
KFR1 112000Z 19017G22KT 34/11 A3005 RMK A01 T03390114  RH  026%=      5-min Rain = 0
KFR1 112001Z 20014G19KT 34/11 A3005 RMK A01 T03390112  RH  025%=      5-min Rain = 0
KFR1 112002Z 20018G24KT 34/11 A3004 RMK A01 T03400113  RH  025%=      5-min Rain = 0
KFR1 112003Z 21015KT 34/11 A3004 RMK A01 T03410113  RH  025%=      5-min Rain = 0
KFR1 112004Z 21016G23KT 34/11 A3004 RMK A01 T03430113  RH  025%=      5-min Rain = 0
KFR1 112005Z 18021G26KT 34/12 A3005 RMK A01 T03430115  RH  025%=      5-min Rain = 0
KFR1 112006Z 19015KT 34/11 A3005 RMK A01 T03430113  RH  025%=      5-min Rain = 0
KFR1 112007Z 20013KT 35/12 A3005 RMK A01 T03450118  RH  025%=      5-min Rain = 0
KFR1 112008Z 19018KT 35/12 A3005 RMK A01 T03490116  RH  024%=      5-min Rain = 0
KFR1 112009Z 19015G20KT 35/12 A3005 RMK A01 T03470115  RH  025%=      5-min Rain = 0
KFR1 112010Z 19015KT 35/12 A3005 RMK A01 T03460118  RH  025%=      5-min Rain = 0
KFR1 112011Z 18013G18KT 35/12 A3005 RMK A01 T03500119  RH  025%=      5-min Rain = 0
KFR1 112012Z 18015G20KT 35/11 A3005 RMK A01 T03490113  RH  024%=      5-min Rain = 0
KFR1 112013Z 19014G19KT 34/12 A3005 RMK A01 T03440116  RH  025%=      5-min Rain = 0
KFR1 112014Z 18015KT 35/11 A3004 RMK A01 T03450114  RH  025%=      5-min Rain = 0
KFR1 112015Z 19015KT 34/11 A3004 RMK A01 T03430114  RH  025%=      5-min Rain = 0
KFR1 112016Z 19017KT 34/12 A3004 RMK A01 T03440115  RH  025%=      5-min Rain = 0
KFR1 112017Z 20013KT 34/11 A3004 RMK A01 T03420114  RH  025%=      5-min Rain = 0
KFR1 112018Z 21015KT 34/12 A3004 RMK A01 T03420116  RH  025%=      5-min Rain = 0
KFR1 112019Z 21014KT 34/12 A3004 RMK A01 T03410116  RH  025%=      5-min Rain = 0
KFR1 112020Z 21010KT 34/12 A3004 RMK A01 T03400119  RH  026%=      5-min Rain = 0
KFR1 112021Z 22011G17KT 34/12 A3004 RMK A01 T03420120  RH  026%=      5-min Rain = 0
KFR1 112022Z 18013G18KT 35/12 A3004 RMK A01 T03450122  RH  026%=      5-min Rain = 0
KFR1 112023Z 18013KT 35/12 A3004 RMK A01 T03470120  RH  025%=      5-min Rain = 0
KFR1 112024Z 19012KT 35/12 A3004 RMK A01 T03470121  RH  026%=      5-min Rain = 0
KFR1 112025Z 18013KT 35/12 A3004 RMK A01 T03450120  RH  026%=      5-min Rain = 0
KFR1 112026Z 18020G25KT 35/12 A3004 RMK A01 T03450118  RH  025%=      5-min Rain = 0
KFR1 112027Z 18017KT 34/11 A3004 RMK A01 T03400114  RH  025%=      5-min Rain = 0
KFR1 112028Z 17017G22KT 34/12 A3004 RMK A01 T03360115  RH  026%=      5-min Rain = 0
KFR1 112029Z 17016KT 34/11 A3004 RMK A01 T03380114  RH  026%=      5-min Rain = 0
KFR1 112030Z 15012KT 34/11 A3004 RMK A01 T03410114  RH  025%=      5-min Rain = 0
KFR1 112031Z 15012G19KT 34/11 A3004 RMK A01 T03410114  RH  025%=      5-min Rain = 0
KFR1 112032Z 18014KT 34/12 A3004 RMK A01 T03410115  RH  025%=      5-min Rain = 0
KFR1 112033Z 17016G21KT 34/11 A3004 RMK A01 T03410114  RH  025%=      5-min Rain = 0
KFR1 112034Z 17010KT 34/11 A3004 RMK A01 T03400113  RH  025%=      5-min Rain = 0
KFR1 112035Z 16012KT 34/11 A3004 RMK A01 T03390113  RH  025%=      5-min Rain = 0
KFR1 112036Z 17013KT 34/11 A3004 RMK A01 T03380114  RH  026%=      5-min Rain = 0
KFR1 112037Z 18011KT 34/11 A3003 RMK A01 T03370112  RH  025%=      5-min Rain = 0
KFR1 112038Z 18013G19KT 34/12 A3003 RMK A01 T03390116  RH  026%=      5-min Rain = 0
KFR1 112039Z 22014G20KT 34/12 A3003 RMK A01 T03440116  RH  025%=      5-min Rain = 0
KFR1 112040Z 20015KT 35/12 A3003 RMK A01 T03470116  RH  025%=      5-min Rain = 0
KFR1 112041Z 18013G23KT 35/12 A3003 RMK A01 T03470117  RH  025%=      5-min Rain = 0
KFR1 112042Z 17019G24KT 35/11 A3003 RMK A01 T03480114  RH  024%=      5-min Rain = 0
KFR1 112043Z 16020KT 35/11 A3003 RMK A01 T03470112  RH  024%=      5-min Rain = 0
KFR1 112044Z 16015G21KT 35/11 A3003 RMK A01 T03460113  RH  024%=      5-min Rain = 0
KFR1 112045Z 17015KT 35/11 A3003 RMK A01 T03460113  RH  024%=      5-min Rain = 0
KFR1 112046Z 18017G22KT 35/11 A3003 RMK A01 T03470114  RH  024%=      5-min Rain = 0
KFR1 112047Z 18015KT 35/11 A3003 RMK A01 T03470112  RH  024%=      5-min Rain = 0
KFR1 112048Z 17016KT 35/11 A3003 RMK A01 T03450111  RH  024%=      5-min Rain = 0
KFR1 112049Z 18014KT 35/11 A3003 RMK A01 T03460114  RH  025%=      5-min Rain = 0
KFR1 112050Z 20016KT 35/11 A3003 RMK A01 T03490114  RH  024%=      5-min Rain = 0
KFR1 112051Z 19016KT 35/11 A3003 RMK A01 T03470112  RH  024%=      5-min Rain = 0
KFR1 112052Z 18016G21KT 35/11 A3003 RMK A01 T03450111  RH  024%=      5-min Rain = 0
KFR1 112053Z 18011KT 34/11 A3003 RMK A01 T03430111  RH  024%=      5-min Rain = 0
KFR1 112054Z 18012G18KT 34/12 A3003 RMK A01 T03440116  RH  025%=      5-min Rain = 0
KFR1 112055Z 17016KT 35/11 A3003 RMK A01 T03460113  RH  024%=      5-min Rain = 0
KFR1 112056Z 16016KT 34/11 A3003 RMK A01 T03440114  RH  025%=      5-min Rain = 0
KFR1 112057Z 16010KT 34/12 A3003 RMK A01 T03440115  RH  025%=      5-min Rain = 0
KFR1 112058Z 16012G17KT 34/12 A3003 RMK A01 T03440116  RH  025%=      5-min Rain = 0
KFR1 112059Z 17016KT 35/11 A3003 RMK A01 T03450114  RH  025%=      5-min Rain = 0
KFR1 112100Z 17016KT 35/11 A3003 RMK A01 T03450114  RH  025%=      5-min Rain = 0
KFR1 112101Z 16018KT 35/12 A3003 RMK A01 T03460116  RH  025%=      5-min Rain = 0
KFR1 112102Z 16017G23KT 35/11 A3003 RMK A01 T03480114  RH  024%=      5-min Rain = 0
KFR1 112103Z 16014G21KT 35/12 A3003 RMK A01 T03460115  RH  025%=      5-min Rain = 0
KFR1 112104Z 19016KT 35/12 A3002 RMK A01 T03470119  RH  025%=      5-min Rain = 0
KFR1 112105Z 19016KT 35/12 A3002 RMK A01 T03480120  RH  025%=      5-min Rain = 0
KFR1 112106Z 18020KT 35/12 A3002 RMK A01 T03450119  RH  025%=      5-min Rain = 0
KFR1 112107Z 18020KT 34/12 A3002 RMK A01 T03440121  RH  026%=      5-min Rain = 0
KFR1 112108Z 18017G22KT 34/12 A3002 RMK A01 T03390120  RH  026%=      5-min Rain = 0
KFR1 112109Z 18013KT 34/12 A3003 RMK A01 T03350119  RH  027%=      5-min Rain = 0
KFR1 112110Z 17012G17KT 34/12 A3003 RMK A01 T03350121  RH  027%=      5-min Rain = 0
KFR1 112111Z 17013G19KT 34/12 A3002 RMK A01 T03370123  RH  027%=      5-min Rain = 0
KFR1 112112Z 17020G26KT 34/12 A3002 RMK A01 T03370124  RH  028%=      5-min Rain = 0
KFR1 112113Z 17018KT 34/13 A3002 RMK A01 T03370125  RH  028%=      5-min Rain = 0
KFR1 112114Z 17016KT 34/13 A3002 RMK A01 T03390127  RH  028%=      5-min Rain = 0
KFR1 112115Z 17016KT 34/13 A3002 RMK A01 T03400127  RH  028%=      5-min Rain = 0
KFR1 112116Z 17015KT 34/13 A3002 RMK A01 T03390127  RH  028%=      5-min Rain = 0
KFR1 112117Z 18015KT 34/13 A3002 RMK A01 T03380126  RH  028%=      5-min Rain = 0
KFR1 112118Z 19014KT 34/13 A3002 RMK A01 T03370127  RH  028%=      5-min Rain = 0
KFR1 112119Z 17015G20KT 34/13 A3002 RMK A01 T03360128  RH  028%=      5-min Rain = 0
KFR1 112120Z 16013KT 33/13 A3002 RMK A01 T03340127  RH  028%=      5-min Rain = 0
KFR1 112121Z 17010G15KT 33/13 A3002 RMK A01 T03330128  RH  029%=      5-min Rain = 0
KFR1 112122Z 16010KT 33/13 A3002 RMK A01 T03330127  RH  029%=      5-min Rain = 0
KFR1 112123Z 16011KT 33/13 A3002 RMK A01 T03340128  RH  029%=      5-min Rain = 0
KFR1 112124Z 16013G20KT 34/13 A3002 RMK A01 T03350129  RH  029%=      5-min Rain = 0
KFR1 112125Z 18014KT 34/13 A3002 RMK A01 T03360130  RH  029%=      5-min Rain = 0
KFR1 112126Z 17012KT 34/13 A3002 RMK A01 T03380131  RH  029%=      5-min Rain = 0
KFR1 112127Z 16011G18KT 34/13 A3002 RMK A01 T03400131  RH  028%=      5-min Rain = 0
KFR1 112128Z 18017G22KT 34/13 A3002 RMK A01 T03390129  RH  028%=      5-min Rain = 0
KFR1 112129Z 19017KT 34/13 A3001 RMK A01 T03360128  RH  028%=      5-min Rain = 0
KFR1 112130Z 20016KT 33/13 A3001 RMK A01 T03340129  RH  029%=      5-min Rain = 0
KFR1 112131Z 19015KT 33/13 A3001 RMK A01 T03330129  RH  029%=      5-min Rain = 0
KFR1 112132Z 19012G17KT 33/13 A3001 RMK A01 T03330128  RH  029%=      5-min Rain = 0
KFR1 112133Z 20009KT 34/13 A3001 RMK A01 T03360130  RH  029%=      5-min Rain = 0
KFR1 112134Z 20013KT 34/13 A3001 RMK A01 T03410131  RH  028%=      5-min Rain = 0
KFR1 112135Z 18015KT 34/13 A3001 RMK A01 T03410129  RH  028%=      5-min Rain = 0
KFR1 112136Z 17013KT 34/13 A3001 RMK A01 T03420130  RH  028%=      5-min Rain = 0
KFR1 112137Z 17016KT 34/13 A3001 RMK A01 T03420131  RH  028%=      5-min Rain = 0
KFR1 112138Z 17017KT 34/13 A3001 RMK A01 T03390128  RH  028%=      5-min Rain = 0
KFR1 112139Z 18017KT 34/13 A3001 RMK A01 T03360128  RH  028%=      5-min Rain = 0
KFR1 112140Z 19015G21KT 34/13 A3001 RMK A01 T03360128  RH  029%=      5-min Rain = 0
KFR1 112141Z 20014KT 34/13 A3001 RMK A01 T03380131  RH  029%=      5-min Rain = 0
KFR1 112142Z 20014KT 34/13 A3001 RMK A01 T03390131  RH  028%=      5-min Rain = 0
KFR1 112143Z 19012G17KT 34/13 A3001 RMK A01 T03380130  RH  028%=      5-min Rain = 0
KFR1 112144Z 19014G19KT 34/13 A3001 RMK A01 T03410132  RH  028%=      5-min Rain = 0
KFR1 112145Z 19012KT 34/13 A3001 RMK A01 T03440130  RH  028%=      5-min Rain = 0
KFR1 112146Z 18012G17KT 35/13 A3001 RMK A01 T03450132  RH  028%=      5-min Rain = 0
KFR1 112147Z 17016G21KT 34/13 A3001 RMK A01 T03440130  RH  028%=      5-min Rain = 0
KFR1 112148Z 16016G21KT 34/13 A3001 RMK A01 T03440131  RH  028%=      5-min Rain = 0
KFR1 112149Z 17014KT 34/13 A3001 RMK A01 T03420130  RH  028%=      5-min Rain = 0
KFR1 112150Z 17015KT 34/13 A3001 RMK A01 T03400132  RH  028%=      5-min Rain = 0
KFR1 112151Z 18014G21KT 34/13 A3001 RMK A01 T03380132  RH  029%=      5-min Rain = 0
KFR1 112152Z 17011KT 34/13 A3001 RMK A01 T03380133  RH  029%=      5-min Rain = 0
KFR1 112153Z 17016G22KT 34/13 A3001 RMK A01 T03380132  RH  029%=      5-min Rain = 0
KFR1 112154Z 17015KT 34/13 A3001 RMK A01 T03360131  RH  029%=      5-min Rain = 0
KFR1 112155Z 16015G21KT 34/13 A3001 RMK A01 T03350131  RH  029%=      5-min Rain = 0
KFR1 112156Z 16014KT 33/13 A3001 RMK A01 T03340131  RH  029%=      5-min Rain = 0
KFR1 112157Z 17014G21KT 33/13 A3001 RMK A01 T03330132  RH  030%=      5-min Rain = 0
KFR1 112158Z 17016G21KT 33/13 A3001 RMK A01 T03330132  RH  030%=      5-min Rain = 0
KFR1 112159Z 17014KT 33/13 A3001 RMK A01 T03330132  RH  030%=      5-min Rain = 0
KFR1 112200Z 17013KT 33/13 A3001 RMK A01 T03330132  RH  030%=      5-min Rain = 0
KFR1 112201Z 17014KT 33/13 A30 RMK A01 T03330132  RH  030%=      5-min Rain = 0
KFR1 112202Z 18017G22KT 34/13 A30 RMK A01 T03350134  RH  030%=      5-min Rain = 0
KFR1 112203Z 18016G21KT 33/13 A30 RMK A01 T03340133  RH  030%=      5-min Rain = 0
KFR1 112204Z 18015KT 33/13 A30 RMK A01 T03320134  RH  030%=      5-min Rain = 0
KFR1 112205Z 16011KT 33/13 A3001 RMK A01 T03320134  RH  030%=      5-min Rain = 0
KFR1 112206Z 17015KT 33/14 A3001 RMK A01 T03320135  RH  030%=      5-min Rain = 0
KFR1 112207Z 16014KT 33/13 A30 RMK A01 T03330134  RH  030%=      5-min Rain = 0
KFR1 112208Z 17014G19KT 34/14 A30 RMK A01 T03360136  RH  030%=      5-min Rain = 0
KFR1 112209Z 17015KT 34/14 A3001 RMK A01 T03390136  RH  030%=      5-min Rain = 0
KFR1 112210Z 18017G25KT 34/14 A30 RMK A01 T03390136  RH  029%=      5-min Rain = 0
KFR1 112211Z 18018G25KT 34/13 A30 RMK A01 T03350134  RH  030%=      5-min Rain = 0
KFR1 112212Z 18021G26KT 33/13 A30 RMK A01 T03330134  RH  030%=      5-min Rain = 0
KFR1 112213Z 18020G26KT 33/13 A30 RMK A01 T03300133  RH  030%=      5-min Rain = 0
KFR1 112214Z 18017KT 33/13 A30 RMK A01 T03290133  RH  031%=      5-min Rain = 0
KFR1 112215Z 18017G22KT 33/13 A30 RMK A01 T03280133  RH  031%=      5-min Rain = 0
KFR1 112216Z 18016KT 33/13 A30 RMK A01 T03280133  RH  031%=      5-min Rain = 0
KFR1 112217Z 18013G18KT 33/13 A30 RMK A01 T03280133  RH  031%=      5-min Rain = 0
KFR1 112218Z 17014G21KT 33/13 A30 RMK A01 T03290134  RH  031%=      5-min Rain = 0
KFR1 112219Z 17016KT 33/13 A30 RMK A01 T03300133  RH  030%=      5-min Rain = 0
KFR1 112220Z 18014G20KT 33/13 A30 RMK A01 T03300133  RH  030%=      5-min Rain = 0
KFR1 112221Z 16017G24KT 33/13 A30 RMK A01 T03330134  RH  030%=      5-min Rain = 0
KFR1 112222Z 16016G22KT 34/14 A30 RMK A01 T03360136  RH  030%=      5-min Rain = 0
KFR1 112223Z 17016G22KT 34/14 A30 RMK A01 T03390136  RH  029%=      5-min Rain = 0
KFR1 112224Z 18018KT 34/14 A30 RMK A01 T03410135  RH  029%=      5-min Rain = 0
KFR1 112225Z 17018KT 34/14 A30 RMK A01 T03420135  RH  029%=      5-min Rain = 0
KFR1 112226Z 17016KT 34/14 A30 RMK A01 T03410135  RH  029%=      5-min Rain = 0
KFR1 112227Z 17014KT 34/14 A30 RMK A01 T03400136  RH  029%=      5-min Rain = 0
KFR1 112228Z 17015KT 34/13 A30 RMK A01 T03390134  RH  029%=      5-min Rain = 0
KFR1 112229Z 17018G26KT 34/13 A30 RMK A01 T03390133  RH  029%=      5-min Rain = 0
KFR1 112230Z 17021G27KT 34/13 A30 RMK A01 T03400131  RH  028%=      5-min Rain = 0
KFR1 112231Z 18019KT 34/13 A30 RMK A01 T03380131  RH  029%=      5-min Rain = 0
KFR1 112232Z 17012KT 34/13 A30 RMK A01 T03400134  RH  029%=      5-min Rain = 0
KFR1 112233Z 19016KT 34/13 A30 RMK A01 T03420133  RH  028%=      5-min Rain = 0
KFR1 112234Z 19015KT 34/13 A30 RMK A01 T03420132  RH  028%=      5-min Rain = 0
KFR1 112235Z 18018KT 34/13 A30 RMK A01 T03420133  RH  028%=      5-min Rain = 0
KFR1 112236Z 17016KT 34/13 A30 RMK A01 T03410130  RH  028%=      5-min Rain = 0
KFR1 112237Z 16016KT 34/13 A30 RMK A01 T03390129  RH  028%=      5-min Rain = 0
KFR1 112238Z 16016KT 34/13 A30 RMK A01 T03380128  RH  028%=      5-min Rain = 0
KFR1 112239Z 16015G22KT 34/13 A30 RMK A01 T03370128  RH  028%=      5-min Rain = 0
KFR1 112240Z 16019KT 34/13 A30 RMK A01 T03370127  RH  028%=      5-min Rain = 0
KFR1 112241Z 16018KT 34/13 A30 RMK A01 T03390127  RH  028%=      5-min Rain = 0
KFR1 112242Z 17019KT 34/13 A30 RMK A01 T03390128  RH  028%=      5-min Rain = 0
KFR1 112243Z 17015KT 34/13 A30 RMK A01 T03370128  RH  028%=      5-min Rain = 0
KFR1 112244Z 17013KT 34/13 A30 RMK A01 T03350128  RH  029%=      5-min Rain = 0
KFR1 112245Z 17014KT 33/13 A30 RMK A01 T03330127  RH  029%=      5-min Rain = 0
KFR1 112246Z 18016KT 33/13 A30 RMK A01 T03330127  RH  029%=      5-min Rain = 0
KFR1 112247Z 17016KT 33/13 A30 RMK A01 T03340127  RH  029%=      5-min Rain = 0
KFR1 112248Z 18015KT 33/13 A30 RMK A01 T03340128  RH  029%=      5-min Rain = 0
KFR1 112249Z 17014G19KT 33/13 A30 RMK A01 T03340129  RH  029%=      5-min Rain = 0
KFR1 112250Z 17013G18KT 34/13 A30 RMK A01 T03370131  RH  029%=      5-min Rain = 0
KFR1 112251Z 18019G24KT 34/13 A30 RMK A01 T03420132  RH  028%=      5-min Rain = 0
KFR1 112252Z 19018KT 34/13 A30 RMK A01 T03430130  RH  028%=      5-min Rain = 0
KFR1 112253Z 19015G20KT 34/13 A30 RMK A01 T03410131  RH  028%=      5-min Rain = 0
KFR1 112254Z 19015KT 34/13 A30 RMK A01 T03400131  RH  028%=      5-min Rain = 0
KFR1 112255Z 18013KT 34/13 A30 RMK A01 T03390131  RH  028%=      5-min Rain = 0
KFR1 112256Z 18016KT 34/13 A30 RMK A01 T03370130  RH  029%=      5-min Rain = 0
KFR1 112257Z 18015G20KT 33/13 A30 RMK A01 T03340128  RH  029%=      5-min Rain = 0
KFR1 112258Z 18012KT 33/13 A30 RMK A01 T03330130  RH  029%=      5-min Rain = 0
KFR1 112259Z 18012KT 33/13 A30 RMK A01 T03330130  RH  029%=      5-min Rain = 0
KFR1 112300Z 19011KT 33/13 A30 RMK A01 T03320132  RH  030%=      5-min Rain = 0
KFR1 112301Z 18014G23KT 33/13 A30 RMK A01 T03320132  RH  030%=      5-min Rain = 0
KFR1 112302Z 18017G22KT 33/13 A30 RMK A01 T03330130  RH  029%=      5-min Rain = 0
KFR1 112303Z 17016KT 34/13 A30 RMK A01 T03350131  RH  029%=      5-min Rain = 0
KFR1 112304Z 17014KT 34/13 A30 RMK A01 T03360132  RH  029%=      5-min Rain = 0
KFR1 112305Z 17014KT 34/13 A30 RMK A01 T03350131  RH  029%=      5-min Rain = 0
KFR1 112306Z 18015KT 33/13 A30 RMK A01 T03330132  RH  030%=      5-min Rain = 0
KFR1 112307Z 18012KT 33/13 A30 RMK A01 T03320132  RH  030%=      5-min Rain = 0
KFR1 112308Z 19012KT 33/13 A30 RMK A01 T03320133  RH  030%=      5-min Rain = 0
KFR1 112309Z 20011KT 33/13 A30 RMK A01 T03320133  RH  030%=      5-min Rain = 0
KFR1 112310Z 19011KT 33/13 A30 RMK A01 T03320132  RH  030%=      5-min Rain = 0
KFR1 112311Z 18012KT 33/13 A30 RMK A01 T03330131  RH  029%=      5-min Rain = 0
KFR1 112312Z 19010G16KT 34/13 A30 RMK A01 T03360133  RH  029%=      5-min Rain = 0
KFR1 112313Z 17013KT 34/13 A30 RMK A01 T03390134  RH  029%=      5-min Rain = 0
KFR1 112314Z 18011G16KT 34/14 A30 RMK A01 T03410135  RH  029%=      5-min Rain = 0
KFR1 112315Z 19011KT 34/14 A30 RMK A01 T03410135  RH  029%=      5-min Rain = 0
KFR1 112316Z 19015KT 34/14 A30 RMK A01 T03420135  RH  029%=      5-min Rain = 0
KFR1 112317Z 19014KT 34/14 A30 RMK A01 T03400135  RH  029%=      5-min Rain = 0
KFR1 112318Z 19016G21KT 34/13 A30 RMK A01 T03370134  RH  029%=      5-min Rain = 0
KFR1 112319Z 18013KT 33/13 A30 RMK A01 T03330134  RH  030%=      5-min Rain = 0
KFR1 112320Z 19012KT 33/13 A30 RMK A01 T03310134  RH  030%=      5-min Rain = 0
KFR1 112321Z 18014KT 33/13 A30 RMK A01 T03300134  RH  031%=      5-min Rain = 0
KFR1 112322Z 19016KT 33/13 A30 RMK A01 T03300134  RH  031%=      5-min Rain = 0
KFR1 112323Z 19013KT 33/13 A30 RMK A01 T03310134  RH  030%=      5-min Rain = 0
KFR1 112324Z 19014KT 33/14 A30 RMK A01 T03330135  RH  030%=      5-min Rain = 0
KFR1 112325Z 19015KT 33/13 A30 RMK A01 T03330134  RH  030%=      5-min Rain = 0
KFR1 112326Z 19012KT 33/14 A30 RMK A01 T03340135  RH  030%=      5-min Rain = 0
KFR1 112327Z 19012KT 33/14 A30 RMK A01 T03340136  RH  030%=      5-min Rain = 0
KFR1 112328Z 19013KT 33/14 A30 RMK A01 T03320135  RH  030%=      5-min Rain = 0
KFR1 112329Z 20014KT 33/14 A30 RMK A01 T03310136  RH  031%=      5-min Rain = 0
KFR1 112330Z 19015KT 33/14 A30 RMK A01 T03290135  RH  031%=      5-min Rain = 0
KFR1 112331Z 19015KT 33/13 A30 RMK A01 T03280134  RH  031%=      5-min Rain = 0
KFR1 112332Z 20012G18KT 33/13 A30 RMK A01 T03270134  RH  031%=      5-min Rain = 0
KFR1 112333Z 19012KT 33/14 A30 RMK A01 T03270135  RH  031%=      5-min Rain = 0
KFR1 112334Z 19013KT 33/14 A30 RMK A01 T03280135  RH  031%=      5-min Rain = 0
KFR1 112335Z 19012KT 33/14 A30 RMK A01 T03290135  RH  031%=      5-min Rain = 0
KFR1 112336Z 18010KT 33/14 A30 RMK A01 T03310136  RH  031%=      5-min Rain = 0
KFR1 112337Z 18012KT 33/14 A30 RMK A01 T03320136  RH  031%=      5-min Rain = 0
KFR1 112338Z 18013KT 34/14 A30 RMK A01 T03350135  RH  030%=      5-min Rain = 0
KFR1 112339Z 18011KT 34/14 A30 RMK A01 T03350135  RH  030%=      5-min Rain = 0
KFR1 112340Z 18014KT 34/14 A30 RMK A01 T03360136  RH  030%=      5-min Rain = 0
KFR1 112341Z 19012G17KT 34/14 A30 RMK A01 T03370137  RH  030%=      5-min Rain = 0
KFR1 112342Z 18015KT 34/14 A30 RMK A01 T03370138  RH  030%=      5-min Rain = 0
KFR1 112343Z 18014G19KT 34/14 A30 RMK A01 T03380139  RH  030%=      5-min Rain = 0
KFR1 112344Z 19017KT 34/14 A30 RMK A01 T03380138  RH  030%=      5-min Rain = 0
KFR1 112345Z 19016KT 34/14 A30 RMK A01 T03350137  RH  030%=      5-min Rain = 0
KFR1 112346Z 19013KT 33/14 A30 RMK A01 T03320137  RH  031%=      5-min Rain = 0
KFR1 112347Z 19015KT 33/14 A30 RMK A01 T03300137  RH  031%=      5-min Rain = 0
KFR1 112348Z 18014KT 33/14 A30 RMK A01 T03290137  RH  031%=      5-min Rain = 0
KFR1 112349Z 19014KT 33/14 A30 RMK A01 T03270137  RH  032%=      5-min Rain = 0
KFR1 112350Z 19013KT 33/14 A30 RMK A01 T03270137  RH  032%=      5-min Rain = 0
KFR1 112351Z 18014KT 33/14 A30 RMK A01 T03260138  RH  032%=      5-min Rain = 0
KFR1 112352Z 18013KT 33/14 A30 RMK A01 T03260137  RH  032%=      5-min Rain = 0
KFR1 112353Z 18009KT 33/14 A30 RMK A01 T03270138  RH  032%=      5-min Rain = 0
KFR1 112354Z 18014G19KT 33/14 A30 RMK A01 T03290138  RH  031%=      5-min Rain = 0
KFR1 112355Z 18014G19KT 33/14 A30 RMK A01 T03300137  RH  031%=      5-min Rain = 0
KFR1 112356Z 18015G20KT 33/14 A30 RMK A01 T03300137  RH  031%=      5-min Rain = 0
KFR1 112357Z 19014G20KT 33/14 A3001 RMK A01 T03300136  RH  031%=      5-min Rain = 0
KFR1 112358Z 18015KT 33/14 A3001 RMK A01 T03300135  RH  031%=      5-min Rain = 0
KFR1 112359Z 18015KT 33/14 A3001 RMK A01 T03300135  RH  031%=      5-min Rain = 0
KFR1 120000Z 18013KT 33/14 A3001 RMK A01 T03310135  RH  031%=      5-min Rain = 0
KFR1 120001Z 18016KT 33/14 A3001 RMK A01 T03310137  RH  031%=      5-min Rain = 0
KFR1 120002Z 18014KT 33/14 A3001 RMK A01 T03300136  RH  031%=      5-min Rain = 0
KFR1 120003Z 18014KT 33/14 A3001 RMK A01 T03290137  RH  031%=      5-min Rain = 0
KFR1 120004Z 18015G20KT 33/14 A3001 RMK A01 T03280136  RH  031%=      5-min Rain = 0
KFR1 120005Z 18014KT 33/14 A3001 RMK A01 T03280136  RH  031%=      5-min Rain = 0
KFR1 120006Z 18012G17KT 33/14 A3001 RMK A01 T03280137  RH  031%=      5-min Rain = 0
KFR1 120007Z 18014KT 33/14 A3001 RMK A01 T03290136  RH  031%=      5-min Rain = 0
KFR1 120008Z 18011KT 33/14 A3001 RMK A01 T03290136  RH  031%=      5-min Rain = 0
KFR1 120009Z 18013KT 33/14 A3001 RMK A01 T03290137  RH  031%=      5-min Rain = 0
KFR1 120010Z 18014KT 33/14 A3001 RMK A01 T03290136  RH  031%=      5-min Rain = 0
KFR1 120011Z 18016KT 33/14 A3001 RMK A01 T03290136  RH  031%=      5-min Rain = 0
KFR1 120012Z 18015KT 33/14 A3001 RMK A01 T03300136  RH  031%=      5-min Rain = 0
KFR1 120013Z 18015KT 33/14 A3001 RMK A01 T03320137  RH  031%=      5-min Rain = 0
KFR1 120014Z 17012KT 33/14 A3001 RMK A01 T03330138  RH  031%=      5-min Rain = 0
KFR1 120015Z 17009KT 33/14 A3001 RMK A01 T03330139  RH  031%=      5-min Rain = 0
KFR1 120016Z 18009KT 33/14 A3001 RMK A01 T03330140  RH  031%=      5-min Rain = 0
KFR1 120017Z 17011KT 33/14 A3001 RMK A01 T03330140  RH  031%=      5-min Rain = 0
KFR1 120018Z 19010KT 33/14 A3001 RMK A01 T03330141  RH  031%=      5-min Rain = 0
KFR1 120019Z 19015KT 33/14 A3001 RMK A01 T03310139  RH  031%=      5-min Rain = 0
KFR1 120020Z 19015KT 33/14 A30 RMK A01 T03310137  RH  031%=      5-min Rain = 0
KFR1 120021Z 19014KT 33/14 A3001 RMK A01 T03300136  RH  031%=      5-min Rain = 0
KFR1 120022Z 18019KT 33/14 A3001 RMK A01 T03280136  RH  031%=      5-min Rain = 0
KFR1 120023Z 18016KT 33/13 A3001 RMK A01 T03280134  RH  031%=      5-min Rain = 0
KFR1 120024Z 18015KT 33/13 A3001 RMK A01 T03280134  RH  031%=      5-min Rain = 0
KFR1 120025Z 18015KT 33/14 A3001 RMK A01 T03300135  RH  031%=      5-min Rain = 0
KFR1 120026Z 17016KT 33/14 A3001 RMK A01 T03300135  RH  031%=      5-min Rain = 0
KFR1 120027Z 17015KT 33/14 A3001 RMK A01 T03300135  RH  031%=      5-min Rain = 0
KFR1 120028Z 18013KT 33/14 A3001 RMK A01 T03310136  RH  031%=      5-min Rain = 0
KFR1 120029Z 18012KT 33/14 A3001 RMK A01 T03310136  RH  031%=      5-min Rain = 0
KFR1 120030Z 18016KT 33/14 A3001 RMK A01 T03310136  RH  031%=      5-min Rain = 0
KFR1 120031Z 18016KT 33/14 A3001 RMK A01 T03310136  RH  031%=      5-min Rain = 0
KFR1 120032Z 17013KT 33/14 A3001 RMK A01 T03310136  RH  031%=      5-min Rain = 0
KFR1 120033Z 17015KT 33/14 A3001 RMK A01 T03300136  RH  031%=      5-min Rain = 0
KFR1 120034Z 17013KT 33/14 A3001 RMK A01 T03300137  RH  031%=      5-min Rain = 0
KFR1 120035Z 18014KT 33/14 A3001 RMK A01 T03300137  RH  031%=      5-min Rain = 0
KFR1 120036Z 17013KT 33/14 A3001 RMK A01 T03300137  RH  031%=      5-min Rain = 0
KFR1 120037Z 17013G19KT 33/14 A3001 RMK A01 T03300138  RH  031%=      5-min Rain = 0
KFR1 120038Z 17012KT 33/14 A3001 RMK A01 T03300138  RH  031%=      5-min Rain = 0
KFR1 120039Z 17012KT 33/14 A3001 RMK A01 T03300139  RH  031%=      5-min Rain = 0
KFR1 120040Z 17013G18KT 33/14 A3001 RMK A01 T03300139  RH  031%=      5-min Rain = 0
KFR1 120041Z 17013KT 33/14 A3001 RMK A01 T03300138  RH  031%=      5-min Rain = 0
KFR1 120042Z 17013G18KT 33/14 A3002 RMK A01 T03300139  RH  032%=      5-min Rain = 0
KFR1 120043Z 18022G29KT 33/14 A3001 RMK A01 T03290140  RH  032%=      5-min Rain = 0
KFR1 120044Z 18021G27KT 32/14 A3001 RMK A01 T03240141  RH  033%=      5-min Rain = 0
KFR1 120045Z 18019G27KT 32/14 A3001 RMK A01 T03200140  RH  034%=      5-min Rain = 0
KFR1 120046Z 19021G27KT 32/14 A3001 RMK A01 T03170140  RH  034%=      5-min Rain = 0
KFR1 120047Z 18019G25KT 32/14 A3001 RMK A01 T03150141  RH  035%=      5-min Rain = 0
KFR1 120048Z 19022G30KT 31/14 A3001 RMK A01 T03140142  RH  035%=      5-min Rain = 0
KFR1 120049Z 19025KT 31/14 A3001 RMK A01 T03130142  RH  035%=      5-min Rain = 0
KFR1 120050Z 19023G28KT 31/14 A3001 RMK A01 T03130141  RH  035%=      5-min Rain = 0
KFR1 120051Z 19022KT 31/14 A3001 RMK A01 T03140141  RH  035%=      5-min Rain = 0
KFR1 120052Z 19021KT 31/14 A3001 RMK A01 T03140143  RH  035%=      5-min Rain = 0
KFR1 120053Z 18019G24KT 31/14 A3001 RMK A01 T03130143  RH  036%=      5-min Rain = 0
KFR1 120054Z 18018KT 31/14 A3002 RMK A01 T03130142  RH  035%=      5-min Rain = 0
KFR1 120055Z 18016KT 31/14 A3002 RMK A01 T03130142  RH  035%=      5-min Rain = 0
KFR1 120056Z 19014KT 31/15 A3002 RMK A01 T03140145  RH  036%=      5-min Rain = 0
KFR1 120057Z 18015KT 31/15 A3002 RMK A01 T03130147  RH  037%=      5-min Rain = 0
KFR1 120058Z 17013KT 31/15 A3002 RMK A01 T03110148  RH  037%=      5-min Rain = 0
KFR1 120059Z 17012KT 31/15 A3002 RMK A01 T03110151  RH  038%=      5-min Rain = 0
KFR1 120100Z 17013KT 31/16 A3002 RMK A01 T03090156  RH  040%=      5-min Rain = 0
KFR1 120101Z 17011KT 31/16 A3002 RMK A01 T03050164  RH  043%=      5-min Rain = 0
KFR1 120102Z 18014KT 30/17 A3002 RMK A01 T02990168  RH  045%=      5-min Rain = 0
KFR1 120103Z 18014KT 30/16 A3002 RMK A01 T02950164  RH  045%=      5-min Rain = 0
KFR1 120104Z 18011KT 29/17 A3002 RMK A01 T02920167  RH  047%=      5-min Rain = 0
KFR1 120105Z 18011KT 29/18 A3002 RMK A01 T02900175  RH  050%=      5-min Rain = 0
KFR1 120106Z 18011KT 29/18 A3002 RMK A01 T02880176  RH  051%=      5-min Rain = 0
KFR1 120107Z 18012KT 29/18 A3002 RMK A01 T02860175  RH  051%=      5-min Rain = 0
KFR1 120108Z 18012KT 29/18 A3002 RMK A01 T02850175  RH  051%=      5-min Rain = 0
KFR1 120109Z 18012KT 29/18 A3002 RMK A01 T02850178  RH  052%=      5-min Rain = 0
KFR1 120110Z 18011KT 29/18 A3002 RMK A01 T02850176  RH  052%=      5-min Rain = 0
KFR1 120111Z 18011KT 29/18 A3002 RMK A01 T02850175  RH  051%=      5-min Rain = 0
KFR1 120112Z 18013KT 29/17 A3002 RMK A01 T02860173  RH  050%=      5-min Rain = 0
KFR1 120113Z 18013KT 29/17 A3002 RMK A01 T02880170  RH  049%=      5-min Rain = 0
KFR1 120114Z 18013KT 29/17 A3002 RMK A01 T02890170  RH  048%=      5-min Rain = 0
KFR1 120115Z 18013KT 29/17 A3002 RMK A01 T02900166  RH  047%=      5-min Rain = 0
KFR1 120116Z 18012KT 29/17 A3002 RMK A01 T02910166  RH  047%=      5-min Rain = 0
KFR1 120117Z 18012KT 29/17 A3002 RMK A01 T02910165  RH  047%=      5-min Rain = 0
KFR1 120118Z 18012KT 29/16 A3002 RMK A01 T02910164  RH  046%=      5-min Rain = 0
KFR1 120119Z 18011KT 29/16 A3002 RMK A01 T02910162  RH  046%=      5-min Rain = 0
KFR1 120120Z 18012KT 29/16 A3002 RMK A01 T02910163  RH  046%=      5-min Rain = 0
KFR1 120121Z 18012KT 29/16 A3002 RMK A01 T02910162  RH  046%=      5-min Rain = 0
KFR1 120122Z 18013KT 29/16 A3001 RMK A01 T02920159  RH  045%=      5-min Rain = 0
KFR1 120123Z 17011KT 29/16 A3001 RMK A01 T02920160  RH  045%=      5-min Rain = 0
KFR1 120124Z 18011KT 29/16 A3001 RMK A01 T02930159  RH  044%=      5-min Rain = 0
KFR1 120125Z 18012KT 29/16 A3001 RMK A01 T02930157  RH  044%=      5-min Rain = 0
KFR1 120126Z 18010KT 29/16 A3002 RMK A01 T02930158  RH  044%=      5-min Rain = 0
KFR1 120127Z 18013KT 29/16 A3001 RMK A01 T02930157  RH  044%=      5-min Rain = 0
KFR1 120128Z 18011KT 29/16 A3002 RMK A01 T02930156  RH  043%=      5-min Rain = 0
KFR1 120129Z 18010KT 29/16 A3002 RMK A01 T02930155  RH  043%=      5-min Rain = 0
KFR1 120130Z 18010KT 29/15 A3002 RMK A01 T02930154  RH  043%=      5-min Rain = 0
KFR1 120131Z 18011KT 29/15 A3002 RMK A01 T02940153  RH  043%=      5-min Rain = 0
KFR1 120132Z 18011KT 29/15 A3002 RMK A01 T02940153  RH  042%=      5-min Rain = 0
KFR1 120133Z 18010KT 30/15 A3002 RMK A01 T02950154  RH  043%=      5-min Rain = 0
KFR1 120134Z 18011KT 29/15 A3002 RMK A01 T02940153  RH  042%=      5-min Rain = 0
KFR1 120135Z 18011KT 29/15 A3002 RMK A01 T02940154  RH  043%=      5-min Rain = 0
KFR1 120136Z 18009KT 29/15 A3002 RMK A01 T02940154  RH  043%=      5-min Rain = 0
KFR1 120137Z 18009G14KT 29/16 A3002 RMK A01 T02940155  RH  043%=      5-min Rain = 0
KFR1 120138Z 18011KT 29/15 A3002 RMK A01 T02930152  RH  042%=      5-min Rain = 0
KFR1 120139Z 18012KT 29/15 A3002 RMK A01 T02940151  RH  042%=      5-min Rain = 0
KFR1 120140Z 18010KT 30/15 A3002 RMK A01 T02950150  RH  041%=      5-min Rain = 0
KFR1 120141Z 18012KT 30/15 A3002 RMK A01 T02950149  RH  041%=      5-min Rain = 0
KFR1 120142Z 17010KT 30/15 A3002 RMK A01 T02960149  RH  041%=      5-min Rain = 0
KFR1 120143Z 18011KT 30/15 A3002 RMK A01 T02960148  RH  041%=      5-min Rain = 0
KFR1 120144Z 17011KT 30/15 A3002 RMK A01 T02960146  RH  040%=      5-min Rain = 0
KFR1 120145Z 18011KT 30/15 A3002 RMK A01 T02960145  RH  040%=      5-min Rain = 0
KFR1 120146Z 18010KT 30/15 A3002 RMK A01 T02970146  RH  040%=      5-min Rain = 0
KFR1 120147Z 17011KT 30/15 A3002 RMK A01 T02970146  RH  040%=      5-min Rain = 0
KFR1 120148Z 18008KT 30/15 A3002 RMK A01 T02970147  RH  040%=      5-min Rain = 0
KFR1 120149Z 18010KT 30/15 A3002 RMK A01 T02960146  RH  040%=      5-min Rain = 0
KFR1 120150Z 17009KT 30/15 A3002 RMK A01 T02960146  RH  040%=      5-min Rain = 0
KFR1 120151Z 17010KT 30/15 A3002 RMK A01 T02960145  RH  040%=      5-min Rain = 0
KFR1 120152Z 18009KT 30/15 A3002 RMK A01 T02960145  RH  040%=      5-min Rain = 0
KFR1 120153Z 17010KT 30/15 A3002 RMK A01 T02960145  RH  040%=      5-min Rain = 0
KFR1 120154Z 18010KT 30/14 A3002 RMK A01 T02960144  RH  040%=      5-min Rain = 0
KFR1 120155Z 18010KT 30/14 A3002 RMK A01 T02960144  RH  040%=      5-min Rain = 0
KFR1 120156Z 18009KT 30/14 A3002 RMK A01 T02960144  RH  039%=      5-min Rain = 0
KFR1 120157Z 18009KT 30/15 A3002 RMK A01 T02970145  RH  040%=      5-min Rain = 0
KFR1 120158Z 17010KT 30/15 A3002 RMK A01 T02970145  RH  040%=      5-min Rain = 0
KFR1 120159Z 18010KT 30/15 A3002 RMK A01 T02970145  RH  039%=      5-min Rain = 0
KFR1 120200Z 17010KT 30/14 A3003 RMK A01 T02970144  RH  039%=      5-min Rain = 0
KFR1 120201Z 17010KT 30/15 A3003 RMK A01 T02970145  RH  039%=      5-min Rain = 0
KFR1 120202Z 17010KT 30/14 A3003 RMK A01 T02970144  RH  039%=      5-min Rain = 0
KFR1 120203Z 17010KT 30/14 A3003 RMK A01 T02970144  RH  039%=      5-min Rain = 0
KFR1 120204Z 17009KT 30/14 A3003 RMK A01 T02970144  RH  039%=      5-min Rain = 0
KFR1 120205Z 17009KT 30/15 A3003 RMK A01 T02970145  RH  039%=      5-min Rain = 0
KFR1 120206Z 16010KT 30/14 A3003 RMK A01 T02970144  RH  039%=      5-min Rain = 0
KFR1 120207Z 17011KT 30/14 A3003 RMK A01 T02970143  RH  039%=      5-min Rain = 0
KFR1 120208Z 17010KT 30/14 A3003 RMK A01 T02970142  RH  039%=      5-min Rain = 0
KFR1 120209Z 17009KT 30/14 A3003 RMK A01 T02970142  RH  039%=      5-min Rain = 0
KFR1 120210Z 17009KT 30/14 A3003 RMK A01 T02970142  RH  039%=      5-min Rain = 0
KFR1 120211Z 17009KT 30/14 A3003 RMK A01 T02970143  RH  039%=      5-min Rain = 0
KFR1 120212Z 16011KT 30/14 A3003 RMK A01 T02970141  RH  039%=      5-min Rain = 0
KFR1 120213Z 16009KT 30/14 A3003 RMK A01 T02970141  RH  038%=      5-min Rain = 0
KFR1 120214Z 16009KT 30/14 A3003 RMK A01 T02970141  RH  038%=      5-min Rain = 0
KFR1 120215Z 16009KT 30/14 A3003 RMK A01 T02980141  RH  038%=      5-min Rain = 0
KFR1 120216Z 17009KT 30/14 A3003 RMK A01 T02980141  RH  038%=      5-min Rain = 0
KFR1 120217Z 16010KT 30/14 A3003 RMK A01 T02980141  RH  038%=      5-min Rain = 0
KFR1 120218Z 16011KT 30/14 A3003 RMK A01 T02980141  RH  038%=      5-min Rain = 0
KFR1 120219Z 16011KT 30/14 A3003 RMK A01 T02970140  RH  038%=      5-min Rain = 0
KFR1 120220Z 17010KT 30/14 A3003 RMK A01 T02980141  RH  038%=      5-min Rain = 0
KFR1 120221Z 16010KT 30/14 A3003 RMK A01 T02980141  RH  038%=      5-min Rain = 0
KFR1 120222Z 16010KT 30/14 A3003 RMK A01 T02980141  RH  038%=      5-min Rain = 0
KFR1 120223Z 16011KT 30/14 A3003 RMK A01 T02970141  RH  038%=      5-min Rain = 0
KFR1 120224Z 17010KT 30/14 A3003 RMK A01 T02970140  RH  038%=      5-min Rain = 0
KFR1 120225Z 16011KT 30/14 A3003 RMK A01 T02970140  RH  038%=      5-min Rain = 0
KFR1 120226Z 16010KT 30/14 A3003 RMK A01 T02970139  RH  038%=      5-min Rain = 0
KFR1 120227Z 16010KT 30/14 A3004 RMK A01 T02970140  RH  038%=      5-min Rain = 0
KFR1 120228Z 17009KT 30/14 A3004 RMK A01 T02960139  RH  038%=      5-min Rain = 0
KFR1 120229Z 17010KT 30/14 A3004 RMK A01 T02960140  RH  038%=      5-min Rain = 0
KFR1 120230Z 17010KT 30/14 A3004 RMK A01 T02960139  RH  038%=      5-min Rain = 0
KFR1 120231Z 16008KT 30/14 A3004 RMK A01 T02960139  RH  038%=      5-min Rain = 0
KFR1 120232Z 17012KT 30/14 A3004 RMK A01 T02960139  RH  038%=      5-min Rain = 0
KFR1 120233Z 16010KT 30/14 A3004 RMK A01 T02960138  RH  038%=      5-min Rain = 0
KFR1 120234Z 17011KT 30/14 A3004 RMK A01 T02960138  RH  038%=      5-min Rain = 0
KFR1 120235Z 17010KT 30/14 A3004 RMK A01 T02960138  RH  038%=      5-min Rain = 0
KFR1 120236Z 17011KT 30/14 A3004 RMK A01 T02960138  RH  038%=      5-min Rain = 0
KFR1 120237Z 17012KT 30/14 A3004 RMK A01 T02960138  RH  038%=      5-min Rain = 0
KFR1 120238Z 16012KT 30/14 A3004 RMK A01 T02950138  RH  038%=      5-min Rain = 0
KFR1 120239Z 17011KT 30/14 A3004 RMK A01 T02950138  RH  038%=      5-min Rain = 0
KFR1 120240Z 17011KT 30/14 A3004 RMK A01 T02950137  RH  038%=      5-min Rain = 0
KFR1 120241Z 16012KT 30/14 A3004 RMK A01 T02950137  RH  038%=      5-min Rain = 0
KFR1 120242Z 17012KT 30/14 A3004 RMK A01 T02950137  RH  038%=      5-min Rain = 0
KFR1 120243Z 17010G15KT 30/14 A3004 RMK A01 T02950137  RH  038%=      5-min Rain = 0
KFR1 120244Z 17012KT 30/14 A3004 RMK A01 T02950136  RH  038%=      5-min Rain = 0
KFR1 120245Z 16011KT 30/14 A3004 RMK A01 T02950136  RH  038%=      5-min Rain = 0
KFR1 120246Z 16011KT 30/14 A3004 RMK A01 T02950135  RH  038%=      5-min Rain = 0
KFR1 120247Z 17012KT 30/14 A3004 RMK A01 T02950135  RH  038%=      5-min Rain = 0
KFR1 120248Z 16012KT 30/13 A3004 RMK A01 T02950134  RH  037%=      5-min Rain = 0
KFR1 120249Z 16011KT 30/13 A3004 RMK A01 T02950134  RH  037%=      5-min Rain = 0
KFR1 120250Z 16011KT 30/13 A3004 RMK A01 T02950134  RH  037%=      5-min Rain = 0
KFR1 120251Z 16010KT 30/13 A3004 RMK A01 T02960134  RH  037%=      5-min Rain = 0
KFR1 120252Z 16011KT 30/13 A3005 RMK A01 T02960134  RH  037%=      5-min Rain = 0
KFR1 120253Z 17011KT 30/13 A3005 RMK A01 T02960133  RH  037%=      5-min Rain = 0
KFR1 120254Z 16012KT 30/13 A3005 RMK A01 T02960133  RH  037%=      5-min Rain = 0
KFR1 120255Z 16013KT 30/13 A3005 RMK A01 T02960132  RH  037%=      5-min Rain = 0
KFR1 120256Z 16012KT 30/13 A3005 RMK A01 T02960132  RH  036%=      5-min Rain = 0
KFR1 120257Z 16012KT 30/13 A3005 RMK A01 T02970132  RH  036%=      5-min Rain = 0
KFR1 120258Z 16011KT 30/13 A3005 RMK A01 T02970132  RH  036%=      5-min Rain = 0
KFR1 120259Z 16011KT 30/13 A3005 RMK A01 T02970132  RH  036%=      5-min Rain = 0
KFR1 120300Z 16011KT 30/13 A3005 RMK A01 T02970131  RH  036%=      5-min Rain = 0
KFR1 120301Z 16010KT 30/13 A3005 RMK A01 T02970131  RH  036%=      5-min Rain = 0
KFR1 120302Z 16010G15KT 30/13 A3005 RMK A01 T02970131  RH  036%=      5-min Rain = 0
KFR1 120303Z 16010KT 30/13 A3005 RMK A01 T02970131  RH  036%=      5-min Rain = 0
KFR1 120304Z 16010G15KT 30/13 A3005 RMK A01 T02970132  RH  036%=      5-min Rain = 0
KFR1 120305Z 16010KT 30/13 A3005 RMK A01 T02960131  RH  036%=      5-min Rain = 0
KFR1 120306Z 16012KT 30/13 A3005 RMK A01 T02970131  RH  036%=      5-min Rain = 0
KFR1 120307Z 16010KT 30/13 A3005 RMK A01 T02970131  RH  036%=      5-min Rain = 0
KFR1 120308Z 16010KT 30/13 A3005 RMK A01 T02970131  RH  036%=      5-min Rain = 0
KFR1 120309Z 16009KT 30/13 A3005 RMK A01 T02970131  RH  036%=      5-min Rain = 0
KFR1 120310Z 15011KT 30/13 A3005 RMK A01 T02970131  RH  036%=      5-min Rain = 0
KFR1 120311Z 16008KT 30/13 A3005 RMK A01 T02960131  RH  036%=      5-min Rain = 0
KFR1 120312Z 16010KT 30/13 A3006 RMK A01 T02960131  RH  036%=      5-min Rain = 0
KFR1 120313Z 16009KT 30/13 A3006 RMK A01 T02950131  RH  036%=      5-min Rain = 0
KFR1 120314Z 16009G14KT 30/13 A3006 RMK A01 T02950131  RH  036%=      5-min Rain = 0
KFR1 120315Z 16011KT 30/13 A3006 RMK A01 T02950131  RH  036%=      5-min Rain = 0
KFR1 120316Z 16009KT 30/13 A3006 RMK A01 T02950131  RH  036%=      5-min Rain = 0
KFR1 120317Z 16009KT 30/13 A3006 RMK A01 T02950131  RH  036%=      5-min Rain = 0
KFR1 120318Z 16009KT 30/13 A3006 RMK A01 T02950130  RH  036%=      5-min Rain = 0
KFR1 120319Z 15012KT 29/13 A3006 RMK A01 T02940130  RH  037%=      5-min Rain = 0
KFR1 120320Z 16009KT 29/13 A3006 RMK A01 T02940130  RH  036%=      5-min Rain = 0
KFR1 120321Z 16008KT 29/13 A3006 RMK A01 T02940130  RH  036%=      5-min Rain = 0
KFR1 120322Z 16009KT 29/13 A3006 RMK A01 T02940130  RH  037%=      5-min Rain = 0
KFR1 120323Z 15010KT 29/13 A3006 RMK A01 T02930130  RH  037%=      5-min Rain = 0
KFR1 120324Z 16009KT 29/13 A3006 RMK A01 T02930130  RH  037%=      5-min Rain = 0
KFR1 120325Z 15009KT 29/13 A3006 RMK A01 T02920130  RH  037%=      5-min Rain = 0
KFR1 120326Z 16009KT 29/13 A3006 RMK A01 T02920130  RH  037%=      5-min Rain = 0
KFR1 120327Z 15009KT 29/13 A3006 RMK A01 T02910130  RH  037%=      5-min Rain = 0
KFR1 120328Z 15009KT 29/13 A3006 RMK A01 T02910129  RH  037%=      5-min Rain = 0
KFR1 120329Z 16008KT 29/13 A3006 RMK A01 T02910130  RH  037%=      5-min Rain = 0
KFR1 120330Z 15008KT 29/13 A3006 RMK A01 T02900130  RH  037%=      5-min Rain = 0
KFR1 120331Z 15009G14KT 29/13 A3006 RMK A01 T02900130  RH  037%=      5-min Rain = 0
KFR1 120332Z 15009KT 29/13 A3006 RMK A01 T02890129  RH  037%=      5-min Rain = 0
KFR1 120333Z 16009KT 29/13 A3006 RMK A01 T02890130  RH  037%=      5-min Rain = 0
KFR1 120334Z 15009KT 29/13 A3006 RMK A01 T02880129  RH  038%=      5-min Rain = 0
KFR1 120335Z 15009G14KT 29/13 A3006 RMK A01 T02880130  RH  038%=      5-min Rain = 0
KFR1 120336Z 15008KT 29/13 A3006 RMK A01 T02880129  RH  038%=      5-min Rain = 0
KFR1 120337Z 16009KT 29/13 A3006 RMK A01 T02870129  RH  038%=      5-min Rain = 0
KFR1 120338Z 16008KT 29/13 A3006 RMK A01 T02870129  RH  038%=      5-min Rain = 0
KFR1 120339Z 16008KT 29/13 A3006 RMK A01 T02870129  RH  038%=      5-min Rain = 0
KFR1 120340Z 15010KT 29/13 A3006 RMK A01 T02870130  RH  038%=      5-min Rain = 0
KFR1 120341Z 15011KT 29/13 A3006 RMK A01 T02860129  RH  038%=      5-min Rain = 0
KFR1 120342Z 15008KT 29/13 A3006 RMK A01 T02860129  RH  038%=      5-min Rain = 0
KFR1 120343Z 16009KT 29/13 A3006 RMK A01 T02860129  RH  038%=      5-min Rain = 0
KFR1 120344Z 16010KT 29/13 A3006 RMK A01 T02850129  RH  038%=      5-min Rain = 0
KFR1 120345Z 16010KT 29/13 A3006 RMK A01 T02850129  RH  038%=      5-min Rain = 0
KFR1 120346Z 15008G14KT 29/13 A3006 RMK A01 T02850129  RH  038%=      5-min Rain = 0
KFR1 120347Z 16008KT 29/13 A3006 RMK A01 T02850129  RH  038%=      5-min Rain = 0
KFR1 120348Z 15008KT 29/13 A3006 RMK A01 T02850129  RH  038%=      5-min Rain = 0
KFR1 120349Z 15009KT 29/13 A3006 RMK A01 T02850129  RH  038%=      5-min Rain = 0
KFR1 120350Z 16009KT 29/13 A3006 RMK A01 T02850129  RH  038%=      5-min Rain = 0
KFR1 120351Z 16009G14KT 28/13 A3006 RMK A01 T02840129  RH  038%=      5-min Rain = 0
KFR1 120352Z 16009KT 28/13 A3006 RMK A01 T02840129  RH  038%=      5-min Rain = 0
KFR1 120353Z 16009KT 28/13 A3006 RMK A01 T02840129  RH  038%=      5-min Rain = 0
KFR1 120354Z 16011KT 28/13 A3006 RMK A01 T02830129  RH  039%=      5-min Rain = 0
KFR1 120355Z 16010KT 28/13 A3006 RMK A01 T02830129  RH  039%=      5-min Rain = 0
KFR1 120356Z 15009KT 28/13 A3006 RMK A01 T02830129  RH  039%=      5-min Rain = 0
KFR1 120357Z 16009KT 28/13 A3006 RMK A01 T02830129  RH  039%=      5-min Rain = 0
KFR1 120358Z 16009KT 28/13 A3006 RMK A01 T02830129  RH  039%=      5-min Rain = 0
KFR1 120359Z 15009KT 28/13 A3006 RMK A01 T02840129  RH  039%=      5-min Rain = 0
KFR1 120400Z 16010KT 28/13 A3006 RMK A01 T02830129  RH  039%=      5-min Rain = 0
KFR1 120401Z 15010KT 28/13 A3006 RMK A01 T02830129  RH  039%=      5-min Rain = 0
KFR1 120402Z 16011KT 28/13 A3006 RMK A01 T02830129  RH  039%=      5-min Rain = 0
KFR1 120403Z 15013KT 28/13 A3006 RMK A01 T02830129  RH  039%=      5-min Rain = 0
KFR1 120404Z 16011G16KT 28/13 A3006 RMK A01 T02840129  RH  038%=      5-min Rain = 0
KFR1 120405Z 16011G18KT 28/13 A3006 RMK A01 T02840130  RH  038%=      5-min Rain = 0
KFR1 120406Z 16011KT 28/13 A3006 RMK A01 T02840130  RH  039%=      5-min Rain = 0
KFR1 120407Z 15011KT 29/13 A3006 RMK A01 T02850130  RH  039%=      5-min Rain = 0
KFR1 120408Z 16014KT 28/13 A3006 RMK A01 T02840130  RH  039%=      5-min Rain = 0
KFR1 120409Z 15012KT 29/13 A3007 RMK A01 T02850130  RH  038%=      5-min Rain = 0
KFR1 120410Z 16012G17KT 29/13 A3007 RMK A01 T02850130  RH  038%=      5-min Rain = 0
KFR1 120411Z 16012KT 29/13 A3007 RMK A01 T02850131  RH  039%=      5-min Rain = 0
KFR1 120412Z 16011KT 29/13 A3007 RMK A01 T02850131  RH  039%=      5-min Rain = 0
KFR1 120413Z 16010KT 29/13 A3007 RMK A01 T02850131  RH  039%=      5-min Rain = 0
KFR1 120414Z 16012KT 28/13 A3007 RMK A01 T02840131  RH  039%=      5-min Rain = 0
KFR1 120415Z 15010KT 28/13 A3007 RMK A01 T02840131  RH  039%=      5-min Rain = 0
KFR1 120416Z 16012G17KT 28/13 A3007 RMK A01 T02840132  RH  039%=      5-min Rain = 0
KFR1 120417Z 16013G18KT 28/13 A3007 RMK A01 T02840132  RH  039%=      5-min Rain = 0
KFR1 120418Z 16011KT 28/13 A3007 RMK A01 T02840132  RH  039%=      5-min Rain = 0
KFR1 120419Z 16013KT 28/13 A3007 RMK A01 T02840132  RH  039%=      5-min Rain = 0
KFR1 120420Z 15010KT 28/13 A3007 RMK A01 T02840132  RH  039%=      5-min Rain = 0
KFR1 120421Z 16009KT 28/13 A3007 RMK A01 T02840133  RH  039%=      5-min Rain = 0
KFR1 120422Z 15010G15KT 28/13 A3007 RMK A01 T02830133  RH  040%=      5-min Rain = 0
KFR1 120423Z 15014KT 28/13 A3007 RMK A01 T02830133  RH  040%=      5-min Rain = 0
KFR1 120424Z 15012KT 28/13 A3007 RMK A01 T02830133  RH  040%=      5-min Rain = 0
KFR1 120425Z 15010G16KT 28/13 A3007 RMK A01 T02820133  RH  040%=      5-min Rain = 0
KFR1 120426Z 16011G17KT 28/13 A3007 RMK A01 T02820133  RH  040%=      5-min Rain = 0
KFR1 120427Z 15010KT 28/13 A3007 RMK A01 T02830134  RH  040%=      5-min Rain = 0
KFR1 120428Z 14010KT 28/13 A3007 RMK A01 T02820134  RH  040%=      5-min Rain = 0
KFR1 120429Z 15010KT 28/13 A3007 RMK A01 T02820134  RH  040%=      5-min Rain = 0
KFR1 120430Z 15009KT 28/13 A3007 RMK A01 T02810134  RH  040%=      5-min Rain = 0
KFR1 120431Z 15012KT 28/13 A3007 RMK A01 T02810134  RH  040%=      5-min Rain = 0
KFR1 120432Z 16009KT 28/13 A3007 RMK A01 T02810134  RH  040%=      5-min Rain = 0
KFR1 120433Z 16012KT 28/13 A3007 RMK A01 T02800134  RH  041%=      5-min Rain = 0
KFR1 120434Z 15010KT 28/13 A3007 RMK A01 T02800134  RH  041%=      5-min Rain = 0
KFR1 120435Z 15012KT 28/13 A3007 RMK A01 T02800134  RH  041%=      5-min Rain = 0
KFR1 120436Z 15011G16KT 28/13 A3007 RMK A01 T02800134  RH  041%=      5-min Rain = 0
KFR1 120437Z 15009KT 28/13 A3007 RMK A01 T02800134  RH  041%=      5-min Rain = 0
KFR1 120438Z 15008KT 28/13 A3007 RMK A01 T02790134  RH  041%=      5-min Rain = 0
KFR1 120439Z 16008KT 28/13 A3007 RMK A01 T02790134  RH  041%=      5-min Rain = 0
KFR1 120440Z 15009KT 28/13 A3007 RMK A01 T02790134  RH  041%=      5-min Rain = 0
KFR1 120441Z 16008KT 28/13 A3007 RMK A01 T02780134  RH  041%=      5-min Rain = 0
KFR1 120442Z 15011KT 28/13 A3007 RMK A01 T02780134  RH  041%=      5-min Rain = 0
KFR1 120443Z 15009KT 28/13 A3007 RMK A01 T02770134  RH  041%=      5-min Rain = 0
KFR1 120444Z 15008G14KT 28/14 A3007 RMK A01 T02780135  RH  041%=      5-min Rain = 0
KFR1 120445Z 15012G17KT 28/13 A3007 RMK A01 T02770134  RH  041%=      5-min Rain = 0
KFR1 120446Z 15011G16KT 28/14 A3007 RMK A01 T02770135  RH  041%=      5-min Rain = 0
KFR1 120447Z 16008KT 28/13 A3007 RMK A01 T02770134  RH  041%=      5-min Rain = 0
KFR1 120448Z 15009KT 28/14 A3007 RMK A01 T02770135  RH  041%=      5-min Rain = 0
KFR1 120449Z 16011KT 28/14 A3007 RMK A01 T02770135  RH  042%=      5-min Rain = 0
KFR1 120450Z 16010G15KT 28/14 A3007 RMK A01 T02770135  RH  042%=      5-min Rain = 0
KFR1 120451Z 16011KT 28/14 A3007 RMK A01 T02770135  RH  042%=      5-min Rain = 0
KFR1 120452Z 16010G17KT 28/14 A3007 RMK A01 T02770135  RH  042%=      5-min Rain = 0
KFR1 120453Z 15010G15KT 28/14 A3007 RMK A01 T02770135  RH  042%=      5-min Rain = 0
KFR1 120454Z 15011G17KT 28/14 A3007 RMK A01 T02770135  RH  042%=      5-min Rain = 0
KFR1 120455Z 15010KT 28/14 A3007 RMK A01 T02770135  RH  042%=      5-min Rain = 0
KFR1 120456Z 15011KT 28/14 A3007 RMK A01 T02770135  RH  042%=      5-min Rain = 0
KFR1 120457Z 16008G14KT 28/14 A3007 RMK A01 T02770135  RH  042%=      5-min Rain = 0
KFR1 120458Z 15011G18KT 28/14 A3007 RMK A01 T02770136  RH  042%=      5-min Rain = 0
KFR1 120459Z 15010KT 28/14 A3007 RMK A01 T02770136  RH  042%=      5-min Rain = 0
KFR1 120500Z 15009KT 28/14 A3007 RMK A01 T02770135  RH  042%=      5-min Rain = 0

Page generated in 0.0327 seconds.